<?xml version="1.0" encoding="UTF-8" standalone="no" ?>
<gpx xmlns="http://www.topografix.com/GPX/1/1" xmlns:xsi="http://www.w3.org/2001/XMLSchema-instance" xsi:schemaLocation="http://www.topografix.com/GPX/1/1 http://www.topografix.com/GPX/1/1/gpx.xsd" version="1.1" creator="VisuGPX - https://www.visugpx.com">
  <metadata>
    <name>Le Quermoz - Pointe de Dzonfié</name>
    <desc><![CDATA[Le Quermoz - Pointe de Dzonfié par les crêtes]]></desc>
  </metadata>
  <trk>
    <name><![CDATA[2016-07-08 08:32]]></name>
    <desc><![CDATA[<p>Heure de départ: 07/08/2016 08:32</p><p>Heure d'arrivée: 07/08/2016 14:44</p><p>Distance: 17,6 km (06:12)</p><p>Temps déplacement: 04:41</p><p>Vitesse moyenne: 2,84 km/h</p><p>Vitesse moyenne mouv.: 3,75 km/h</p><p>Vitesse Max.: 12,51km/h</p><p>Altitude minimale: 1269 m</p><p>Altitude maximale: 2460 m</p><p>Vitesse de montée: 394 m/h</p><p>Vitesse de descente: -527,7 m/h</p><p>Gain d'altitude: 1378 m</p><p>Perte d'altitude: -1382 m</p><p>Temps de montée: 03:29</p><p>Temps de descente: 02:37</p><hr align="center" width="480" style="height: 2px; width: 517px"/>]]></desc>
    <trkseg>
      <trkpt lat="45.55821" lon="6.52291">
        <ele>1320.53</ele>
        <time>2016-07-08T06:32:10Z</time>
      </trkpt>
      <trkpt lat="45.55843" lon="6.523">
        <ele>1293.33</ele>
        <time>2016-07-08T06:32:13Z</time>
      </trkpt>
      <trkpt lat="45.55859" lon="6.52316">
        <ele>1280.58</ele>
        <time>2016-07-08T06:32:19Z</time>
      </trkpt>
      <trkpt lat="45.55877" lon="6.52323">
        <ele>1269.77</ele>
        <time>2016-07-08T06:32:23Z</time>
      </trkpt>
      <trkpt lat="45.55892" lon="6.52337">
        <ele>1273.32</ele>
        <time>2016-07-08T06:32:36Z</time>
      </trkpt>
      <trkpt lat="45.559" lon="6.52363">
        <ele>1280.07</ele>
        <time>2016-07-08T06:32:43Z</time>
      </trkpt>
      <trkpt lat="45.55903" lon="6.52389">
        <ele>1313.28</ele>
        <time>2016-07-08T06:32:57Z</time>
      </trkpt>
      <trkpt lat="45.55916" lon="6.52406">
        <ele>1325.13</ele>
        <time>2016-07-08T06:34:00Z</time>
      </trkpt>
      <trkpt lat="45.55915" lon="6.52432">
        <ele>1335.36</ele>
        <time>2016-07-08T06:34:17Z</time>
      </trkpt>
      <trkpt lat="45.55922" lon="6.52461">
        <ele>1339.88</ele>
        <time>2016-07-08T06:34:36Z</time>
      </trkpt>
      <trkpt lat="45.55916" lon="6.52485">
        <ele>1339.52</ele>
        <time>2016-07-08T06:35:32Z</time>
      </trkpt>
      <trkpt lat="45.55904" lon="6.52506">
        <ele>1346.52</ele>
        <time>2016-07-08T06:35:57Z</time>
      </trkpt>
      <trkpt lat="45.55891" lon="6.52524">
        <ele>1354.55</ele>
        <time>2016-07-08T06:36:21Z</time>
      </trkpt>
      <trkpt lat="45.55877" lon="6.52542">
        <ele>1357.15</ele>
        <time>2016-07-08T06:37:57Z</time>
      </trkpt>
      <trkpt lat="45.5586" lon="6.52549">
        <ele>1354.78</ele>
        <time>2016-07-08T06:39:03Z</time>
      </trkpt>
      <trkpt lat="45.55842" lon="6.52559">
        <ele>1358.13</ele>
        <time>2016-07-08T06:39:26Z</time>
      </trkpt>
      <trkpt lat="45.55824" lon="6.52554">
        <ele>1357.73</ele>
        <time>2016-07-08T06:40:02Z</time>
      </trkpt>
      <trkpt lat="45.55806" lon="6.52555">
        <ele>1361.7</ele>
        <time>2016-07-08T06:40:25Z</time>
      </trkpt>
      <trkpt lat="45.55787" lon="6.52549">
        <ele>1375.33</ele>
        <time>2016-07-08T06:40:49Z</time>
      </trkpt>
      <trkpt lat="45.5577" lon="6.52538">
        <ele>1384.57</ele>
        <time>2016-07-08T06:43:15Z</time>
      </trkpt>
      <trkpt lat="45.5575" lon="6.52538">
        <ele>1388.68</ele>
        <time>2016-07-08T06:43:33Z</time>
      </trkpt>
      <trkpt lat="45.55731" lon="6.52539">
        <ele>1396.13</ele>
        <time>2016-07-08T06:44:08Z</time>
      </trkpt>
      <trkpt lat="45.55732" lon="6.52565">
        <ele>1400.36</ele>
        <time>2016-07-08T06:44:46Z</time>
      </trkpt>
      <trkpt lat="45.55749" lon="6.52575">
        <ele>1400.32</ele>
        <time>2016-07-08T06:45:00Z</time>
      </trkpt>
      <trkpt lat="45.55731" lon="6.52582">
        <ele>1402.41</ele>
        <time>2016-07-08T06:45:09Z</time>
      </trkpt>
      <trkpt lat="45.55747" lon="6.52594">
        <ele>1407.28</ele>
        <time>2016-07-08T06:45:23Z</time>
      </trkpt>
      <trkpt lat="45.55751" lon="6.5262">
        <ele>1409.51</ele>
        <time>2016-07-08T06:45:51Z</time>
      </trkpt>
      <trkpt lat="45.55767" lon="6.52632">
        <ele>1418.28</ele>
        <time>2016-07-08T06:46:21Z</time>
      </trkpt>
      <trkpt lat="45.55755" lon="6.52654">
        <ele>1415.89</ele>
        <time>2016-07-08T06:47:08Z</time>
      </trkpt>
      <trkpt lat="45.55748" lon="6.52678">
        <ele>1421.44</ele>
        <time>2016-07-08T06:47:16Z</time>
      </trkpt>
      <trkpt lat="45.55751" lon="6.52706">
        <ele>1432.72</ele>
        <time>2016-07-08T06:47:28Z</time>
      </trkpt>
      <trkpt lat="45.55751" lon="6.52731">
        <ele>1441.53</ele>
        <time>2016-07-08T06:48:47Z</time>
      </trkpt>
      <trkpt lat="45.55733" lon="6.52741">
        <ele>1445.49</ele>
        <time>2016-07-08T06:49:09Z</time>
      </trkpt>
      <trkpt lat="45.55715" lon="6.52738">
        <ele>1447.49</ele>
        <time>2016-07-08T06:49:34Z</time>
      </trkpt>
      <trkpt lat="45.55699" lon="6.52753">
        <ele>1450.45</ele>
        <time>2016-07-08T06:49:52Z</time>
      </trkpt>
      <trkpt lat="45.55683" lon="6.52766">
        <ele>1455.56</ele>
        <time>2016-07-08T06:50:10Z</time>
      </trkpt>
      <trkpt lat="45.55664" lon="6.52772">
        <ele>1455.53</ele>
        <time>2016-07-08T06:50:33Z</time>
      </trkpt>
      <trkpt lat="45.55647" lon="6.52763">
        <ele>1455.5</ele>
        <time>2016-07-08T06:53:38Z</time>
      </trkpt>
      <trkpt lat="45.55629" lon="6.52754">
        <ele>1467.34</ele>
        <time>2016-07-08T06:54:43Z</time>
      </trkpt>
      <trkpt lat="45.5561" lon="6.52752">
        <ele>1468.47</ele>
        <time>2016-07-08T06:54:58Z</time>
      </trkpt>
      <trkpt lat="45.55592" lon="6.52758">
        <ele>1475.49</ele>
        <time>2016-07-08T06:55:18Z</time>
      </trkpt>
      <trkpt lat="45.55574" lon="6.52757">
        <ele>1484.53</ele>
        <time>2016-07-08T06:55:54Z</time>
      </trkpt>
      <trkpt lat="45.55559" lon="6.52772">
        <ele>1482.74</ele>
        <time>2016-07-08T06:56:21Z</time>
      </trkpt>
      <trkpt lat="45.55544" lon="6.52786">
        <ele>1490.13</ele>
        <time>2016-07-08T06:56:53Z</time>
      </trkpt>
      <trkpt lat="45.55526" lon="6.52794">
        <ele>1497.74</ele>
        <time>2016-07-08T06:57:46Z</time>
      </trkpt>
      <trkpt lat="45.55533" lon="6.52818">
        <ele>1500.25</ele>
        <time>2016-07-08T06:58:42Z</time>
      </trkpt>
      <trkpt lat="45.55542" lon="6.52841">
        <ele>1498.37</ele>
        <time>2016-07-08T06:58:59Z</time>
      </trkpt>
      <trkpt lat="45.55558" lon="6.52855">
        <ele>1500.57</ele>
        <time>2016-07-08T06:59:45Z</time>
      </trkpt>
      <trkpt lat="45.55568" lon="6.52879">
        <ele>1505.73</ele>
        <time>2016-07-08T07:00:02Z</time>
      </trkpt>
      <trkpt lat="45.55558" lon="6.52904">
        <ele>1510.54</ele>
        <time>2016-07-08T07:00:57Z</time>
      </trkpt>
      <trkpt lat="45.5554" lon="6.52913">
        <ele>1513.52</ele>
        <time>2016-07-08T07:01:15Z</time>
      </trkpt>
      <trkpt lat="45.55521" lon="6.52918">
        <ele>1517.33</ele>
        <time>2016-07-08T07:01:35Z</time>
      </trkpt>
      <trkpt lat="45.55503" lon="6.5292">
        <ele>1518.46</ele>
        <time>2016-07-08T07:01:57Z</time>
      </trkpt>
      <trkpt lat="45.55485" lon="6.52923">
        <ele>1523.29</ele>
        <time>2016-07-08T07:02:51Z</time>
      </trkpt>
      <trkpt lat="45.5547" lon="6.52938">
        <ele>1527.74</ele>
        <time>2016-07-08T07:03:07Z</time>
      </trkpt>
      <trkpt lat="45.55453" lon="6.52952">
        <ele>1529.04</ele>
        <time>2016-07-08T07:03:26Z</time>
      </trkpt>
      <trkpt lat="45.55437" lon="6.52967">
        <ele>1532.53</ele>
        <time>2016-07-08T07:03:39Z</time>
      </trkpt>
      <trkpt lat="45.55421" lon="6.52982">
        <ele>1534.58</ele>
        <time>2016-07-08T07:03:56Z</time>
      </trkpt>
      <trkpt lat="45.55403" lon="6.52992">
        <ele>1536.52</ele>
        <time>2016-07-08T07:04:10Z</time>
      </trkpt>
      <trkpt lat="45.55385" lon="6.53">
        <ele>1539.49</ele>
        <time>2016-07-08T07:04:27Z</time>
      </trkpt>
      <trkpt lat="45.55369" lon="6.52988">
        <ele>1532.37</ele>
        <time>2016-07-08T07:05:01Z</time>
      </trkpt>
      <trkpt lat="45.5535" lon="6.52991">
        <ele>1544.48</ele>
        <time>2016-07-08T07:06:35Z</time>
      </trkpt>
      <trkpt lat="45.55332" lon="6.52991">
        <ele>1548.54</ele>
        <time>2016-07-08T07:06:47Z</time>
      </trkpt>
      <trkpt lat="45.55314" lon="6.52999">
        <ele>1548.49</ele>
        <time>2016-07-08T07:09:14Z</time>
      </trkpt>
      <trkpt lat="45.55297" lon="6.53011">
        <ele>1547.76</ele>
        <time>2016-07-08T07:09:25Z</time>
      </trkpt>
      <trkpt lat="45.55293" lon="6.5304">
        <ele>1531.73</ele>
        <time>2016-07-08T07:09:40Z</time>
      </trkpt>
      <trkpt lat="45.55296" lon="6.53066">
        <ele>1547.3</ele>
        <time>2016-07-08T07:10:08Z</time>
      </trkpt>
      <trkpt lat="45.55292" lon="6.53093">
        <ele>1549.57</ele>
        <time>2016-07-08T07:10:23Z</time>
      </trkpt>
      <trkpt lat="45.55292" lon="6.53119">
        <ele>1556.53</ele>
        <time>2016-07-08T07:10:39Z</time>
      </trkpt>
      <trkpt lat="45.55298" lon="6.53144">
        <ele>1555.73</ele>
        <time>2016-07-08T07:10:54Z</time>
      </trkpt>
      <trkpt lat="45.55304" lon="6.53169">
        <ele>1557.32</ele>
        <time>2016-07-08T07:11:07Z</time>
      </trkpt>
      <trkpt lat="45.55312" lon="6.53192">
        <ele>1559.53</ele>
        <time>2016-07-08T07:11:21Z</time>
      </trkpt>
      <trkpt lat="45.55326" lon="6.5321">
        <ele>1566.71</ele>
        <time>2016-07-08T07:11:37Z</time>
      </trkpt>
      <trkpt lat="45.55341" lon="6.53225">
        <ele>1567.68</ele>
        <time>2016-07-08T07:11:51Z</time>
      </trkpt>
      <trkpt lat="45.55352" lon="6.53246">
        <ele>1568.53</ele>
        <time>2016-07-08T07:12:05Z</time>
      </trkpt>
      <trkpt lat="45.55345" lon="6.53272">
        <ele>1570.52</ele>
        <time>2016-07-08T07:12:20Z</time>
      </trkpt>
      <trkpt lat="45.55327" lon="6.53265">
        <ele>1573.57</ele>
        <time>2016-07-08T07:12:32Z</time>
      </trkpt>
      <trkpt lat="45.55311" lon="6.53253">
        <ele>1573.54</ele>
        <time>2016-07-08T07:12:47Z</time>
      </trkpt>
      <trkpt lat="45.55292" lon="6.53263">
        <ele>1581.73</ele>
        <time>2016-07-08T07:13:46Z</time>
      </trkpt>
      <trkpt lat="45.55278" lon="6.5328">
        <ele>1579.53</ele>
        <time>2016-07-08T07:14:02Z</time>
      </trkpt>
      <trkpt lat="45.55268" lon="6.53301">
        <ele>1578.72</ele>
        <time>2016-07-08T07:14:17Z</time>
      </trkpt>
      <trkpt lat="45.55281" lon="6.53321">
        <ele>1581.93</ele>
        <time>2016-07-08T07:14:34Z</time>
      </trkpt>
      <trkpt lat="45.553" lon="6.53321">
        <ele>1580.57</ele>
        <time>2016-07-08T07:14:46Z</time>
      </trkpt>
      <trkpt lat="45.55316" lon="6.53333">
        <ele>1586.56</ele>
        <time>2016-07-08T07:15:03Z</time>
      </trkpt>
      <trkpt lat="45.55322" lon="6.53358">
        <ele>1587.33</ele>
        <time>2016-07-08T07:15:34Z</time>
      </trkpt>
      <trkpt lat="45.55303" lon="6.53357">
        <ele>1588.53</ele>
        <time>2016-07-08T07:15:50Z</time>
      </trkpt>
      <trkpt lat="45.55284" lon="6.5335">
        <ele>1591.32</ele>
        <time>2016-07-08T07:16:05Z</time>
      </trkpt>
      <trkpt lat="45.55269" lon="6.53365">
        <ele>1593.41</ele>
        <time>2016-07-08T07:16:22Z</time>
      </trkpt>
      <trkpt lat="45.55286" lon="6.53383">
        <ele>1595.45</ele>
        <time>2016-07-08T07:16:37Z</time>
      </trkpt>
      <trkpt lat="45.55302" lon="6.53395">
        <ele>1595.53</ele>
        <time>2016-07-08T07:16:53Z</time>
      </trkpt>
      <trkpt lat="45.55317" lon="6.53414">
        <ele>1594.49</ele>
        <time>2016-07-08T07:17:07Z</time>
      </trkpt>
      <trkpt lat="45.55329" lon="6.53434">
        <ele>1596.48</ele>
        <time>2016-07-08T07:17:25Z</time>
      </trkpt>
      <trkpt lat="45.55341" lon="6.53457">
        <ele>1596.7</ele>
        <time>2016-07-08T07:17:41Z</time>
      </trkpt>
      <trkpt lat="45.55324" lon="6.53446">
        <ele>1602.47</ele>
        <time>2016-07-08T07:18:21Z</time>
      </trkpt>
      <trkpt lat="45.55305" lon="6.53444">
        <ele>1603.73</ele>
        <time>2016-07-08T07:18:34Z</time>
      </trkpt>
      <trkpt lat="45.55286" lon="6.53438">
        <ele>1603.54</ele>
        <time>2016-07-08T07:18:47Z</time>
      </trkpt>
      <trkpt lat="45.55268" lon="6.53436">
        <ele>1607.33</ele>
        <time>2016-07-08T07:19:02Z</time>
      </trkpt>
      <trkpt lat="45.55249" lon="6.53439">
        <ele>1607.46</ele>
        <time>2016-07-08T07:19:17Z</time>
      </trkpt>
      <trkpt lat="45.55229" lon="6.53447">
        <ele>1604.36</ele>
        <time>2016-07-08T07:19:31Z</time>
      </trkpt>
      <trkpt lat="45.55215" lon="6.5343">
        <ele>1606.46</ele>
        <time>2016-07-08T07:19:47Z</time>
      </trkpt>
      <trkpt lat="45.55197" lon="6.53423">
        <ele>1611.48</ele>
        <time>2016-07-08T07:20:00Z</time>
      </trkpt>
      <trkpt lat="45.55178" lon="6.53427">
        <ele>1614.33</ele>
        <time>2016-07-08T07:20:15Z</time>
      </trkpt>
      <trkpt lat="45.55158" lon="6.53426">
        <ele>1618.33</ele>
        <time>2016-07-08T07:20:31Z</time>
      </trkpt>
      <trkpt lat="45.5514" lon="6.53439">
        <ele>1617.34</ele>
        <time>2016-07-08T07:20:44Z</time>
      </trkpt>
      <trkpt lat="45.55121" lon="6.53438">
        <ele>1620.34</ele>
        <time>2016-07-08T07:20:59Z</time>
      </trkpt>
      <trkpt lat="45.55103" lon="6.53442">
        <ele>1619.56</ele>
        <time>2016-07-08T07:21:12Z</time>
      </trkpt>
      <trkpt lat="45.55083" lon="6.5344">
        <ele>1617.76</ele>
        <time>2016-07-08T07:21:25Z</time>
      </trkpt>
      <trkpt lat="45.55066" lon="6.53428">
        <ele>1624.44</ele>
        <time>2016-07-08T07:21:40Z</time>
      </trkpt>
      <trkpt lat="45.5505" lon="6.53416">
        <ele>1631.32</ele>
        <time>2016-07-08T07:21:55Z</time>
      </trkpt>
      <trkpt lat="45.55032" lon="6.53408">
        <ele>1631.54</ele>
        <time>2016-07-08T07:22:09Z</time>
      </trkpt>
      <trkpt lat="45.55013" lon="6.5341">
        <ele>1634.48</ele>
        <time>2016-07-08T07:22:19Z</time>
      </trkpt>
      <trkpt lat="45.55028" lon="6.53426">
        <ele>1633.32</ele>
        <time>2016-07-08T07:22:37Z</time>
      </trkpt>
      <trkpt lat="45.55044" lon="6.5344">
        <ele>1636.28</ele>
        <time>2016-07-08T07:22:52Z</time>
      </trkpt>
      <trkpt lat="45.55052" lon="6.53463">
        <ele>1635.7</ele>
        <time>2016-07-08T07:23:06Z</time>
      </trkpt>
      <trkpt lat="45.55063" lon="6.53485">
        <ele>1636.36</ele>
        <time>2016-07-08T07:23:21Z</time>
      </trkpt>
      <trkpt lat="45.5508" lon="6.53492">
        <ele>1639.73</ele>
        <time>2016-07-08T07:23:59Z</time>
      </trkpt>
      <trkpt lat="45.55096" lon="6.53506">
        <ele>1640.37</ele>
        <time>2016-07-08T07:24:14Z</time>
      </trkpt>
      <trkpt lat="45.55112" lon="6.53521">
        <ele>1643.29</ele>
        <time>2016-07-08T07:24:30Z</time>
      </trkpt>
      <trkpt lat="45.55129" lon="6.53532">
        <ele>1641.56</ele>
        <time>2016-07-08T07:24:43Z</time>
      </trkpt>
      <trkpt lat="45.55148" lon="6.53534">
        <ele>1645.57</ele>
        <time>2016-07-08T07:24:59Z</time>
      </trkpt>
      <trkpt lat="45.55167" lon="6.53532">
        <ele>1644.67</ele>
        <time>2016-07-08T07:25:12Z</time>
      </trkpt>
      <trkpt lat="45.55164" lon="6.53558">
        <ele>1643.89</ele>
        <time>2016-07-08T07:25:30Z</time>
      </trkpt>
      <trkpt lat="45.55146" lon="6.53556">
        <ele>1646.54</ele>
        <time>2016-07-08T07:25:45Z</time>
      </trkpt>
      <trkpt lat="45.55125" lon="6.53556">
        <ele>1648.78</ele>
        <time>2016-07-08T07:25:59Z</time>
      </trkpt>
      <trkpt lat="45.55105" lon="6.5356">
        <ele>1650.38</ele>
        <time>2016-07-08T07:26:16Z</time>
      </trkpt>
      <trkpt lat="45.55085" lon="6.5356">
        <ele>1654.69</ele>
        <time>2016-07-08T07:26:31Z</time>
      </trkpt>
      <trkpt lat="45.55066" lon="6.53563">
        <ele>1654.66</ele>
        <time>2016-07-08T07:26:46Z</time>
      </trkpt>
      <trkpt lat="45.55048" lon="6.53568">
        <ele>1656.51</ele>
        <time>2016-07-08T07:27:44Z</time>
      </trkpt>
      <trkpt lat="45.55053" lon="6.53593">
        <ele>1657.6</ele>
        <time>2016-07-08T07:28:06Z</time>
      </trkpt>
      <trkpt lat="45.55058" lon="6.53619">
        <ele>1659.36</ele>
        <time>2016-07-08T07:28:26Z</time>
      </trkpt>
      <trkpt lat="45.55068" lon="6.53642">
        <ele>1665.5</ele>
        <time>2016-07-08T07:29:03Z</time>
      </trkpt>
      <trkpt lat="45.55084" lon="6.53659">
        <ele>1674.69</ele>
        <time>2016-07-08T07:29:26Z</time>
      </trkpt>
      <trkpt lat="45.55099" lon="6.53676">
        <ele>1675.5</ele>
        <time>2016-07-08T07:29:48Z</time>
      </trkpt>
      <trkpt lat="45.5511" lon="6.53697">
        <ele>1679.33</ele>
        <time>2016-07-08T07:30:12Z</time>
      </trkpt>
      <trkpt lat="45.55123" lon="6.53716">
        <ele>1682.33</ele>
        <time>2016-07-08T07:30:34Z</time>
      </trkpt>
      <trkpt lat="45.55141" lon="6.53723">
        <ele>1684.57</ele>
        <time>2016-07-08T07:30:50Z</time>
      </trkpt>
      <trkpt lat="45.55162" lon="6.53731">
        <ele>1684.33</ele>
        <time>2016-07-08T07:31:07Z</time>
      </trkpt>
      <trkpt lat="45.55183" lon="6.53732">
        <ele>1690.33</ele>
        <time>2016-07-08T07:31:23Z</time>
      </trkpt>
      <trkpt lat="45.55195" lon="6.53753">
        <ele>1691.49</ele>
        <time>2016-07-08T07:31:35Z</time>
      </trkpt>
      <trkpt lat="45.55213" lon="6.5376">
        <ele>1693.77</ele>
        <time>2016-07-08T07:31:50Z</time>
      </trkpt>
      <trkpt lat="45.55233" lon="6.53752">
        <ele>1696.14</ele>
        <time>2016-07-08T07:32:04Z</time>
      </trkpt>
      <trkpt lat="45.55249" lon="6.53739">
        <ele>1693.94</ele>
        <time>2016-07-08T07:32:19Z</time>
      </trkpt>
      <trkpt lat="45.55268" lon="6.5374">
        <ele>1694.34</ele>
        <time>2016-07-08T07:32:32Z</time>
      </trkpt>
      <trkpt lat="45.55281" lon="6.53759">
        <ele>1696.81</ele>
        <time>2016-07-08T07:32:47Z</time>
      </trkpt>
      <trkpt lat="45.55282" lon="6.53786">
        <ele>1693.75</ele>
        <time>2016-07-08T07:33:00Z</time>
      </trkpt>
      <trkpt lat="45.55289" lon="6.5381">
        <ele>1694.57</ele>
        <time>2016-07-08T07:33:11Z</time>
      </trkpt>
      <trkpt lat="45.5529" lon="6.53837">
        <ele>1703.3</ele>
        <time>2016-07-08T07:33:27Z</time>
      </trkpt>
      <trkpt lat="45.55297" lon="6.53861">
        <ele>1705.72</ele>
        <time>2016-07-08T07:33:40Z</time>
      </trkpt>
      <trkpt lat="45.55316" lon="6.53866">
        <ele>1708.32</ele>
        <time>2016-07-08T07:33:51Z</time>
      </trkpt>
      <trkpt lat="45.55324" lon="6.5389">
        <ele>1713.48</ele>
        <time>2016-07-08T07:34:07Z</time>
      </trkpt>
      <trkpt lat="45.55326" lon="6.53917">
        <ele>1710.72</ele>
        <time>2016-07-08T07:34:20Z</time>
      </trkpt>
      <trkpt lat="45.55339" lon="6.53937">
        <ele>1712.53</ele>
        <time>2016-07-08T07:34:31Z</time>
      </trkpt>
      <trkpt lat="45.55346" lon="6.53964">
        <ele>1710.53</ele>
        <time>2016-07-08T07:34:48Z</time>
      </trkpt>
      <trkpt lat="45.5535" lon="6.53989">
        <ele>1711.41</ele>
        <time>2016-07-08T07:34:59Z</time>
      </trkpt>
      <trkpt lat="45.55347" lon="6.54015">
        <ele>1714.34</ele>
        <time>2016-07-08T07:35:12Z</time>
      </trkpt>
      <trkpt lat="45.5536" lon="6.54036">
        <ele>1714.53</ele>
        <time>2016-07-08T07:35:24Z</time>
      </trkpt>
      <trkpt lat="45.55374" lon="6.54056">
        <ele>1713.3</ele>
        <time>2016-07-08T07:35:40Z</time>
      </trkpt>
      <trkpt lat="45.55389" lon="6.54074">
        <ele>1716.09</ele>
        <time>2016-07-08T07:35:54Z</time>
      </trkpt>
      <trkpt lat="45.554" lon="6.54095">
        <ele>1719.33</ele>
        <time>2016-07-08T07:36:06Z</time>
      </trkpt>
      <trkpt lat="45.55405" lon="6.54121">
        <ele>1721.74</ele>
        <time>2016-07-08T07:36:19Z</time>
      </trkpt>
      <trkpt lat="45.55402" lon="6.54148">
        <ele>1725.53</ele>
        <time>2016-07-08T07:36:33Z</time>
      </trkpt>
      <trkpt lat="45.55413" lon="6.5417">
        <ele>1725.51</ele>
        <time>2016-07-08T07:36:46Z</time>
      </trkpt>
      <trkpt lat="45.55432" lon="6.5417">
        <ele>1728.48</ele>
        <time>2016-07-08T07:37:01Z</time>
      </trkpt>
      <trkpt lat="45.55448" lon="6.54183">
        <ele>1729.68</ele>
        <time>2016-07-08T07:37:09Z</time>
      </trkpt>
      <trkpt lat="45.5546" lon="6.54202">
        <ele>1722.35</ele>
        <time>2016-07-08T07:37:24Z</time>
      </trkpt>
      <trkpt lat="45.55445" lon="6.54216">
        <ele>1729.53</ele>
        <time>2016-07-08T07:38:03Z</time>
      </trkpt>
      <trkpt lat="45.55428" lon="6.54202">
        <ele>1733.49</ele>
        <time>2016-07-08T07:38:31Z</time>
      </trkpt>
      <trkpt lat="45.55411" lon="6.54212">
        <ele>1730.49</ele>
        <time>2016-07-08T07:38:52Z</time>
      </trkpt>
      <trkpt lat="45.55393" lon="6.54213">
        <ele>1740.49</ele>
        <time>2016-07-08T07:39:15Z</time>
      </trkpt>
      <trkpt lat="45.55374" lon="6.54213">
        <ele>1744.48</ele>
        <time>2016-07-08T07:39:28Z</time>
      </trkpt>
      <trkpt lat="45.55356" lon="6.54212">
        <ele>1744.74</ele>
        <time>2016-07-08T07:39:47Z</time>
      </trkpt>
      <trkpt lat="45.55337" lon="6.54203">
        <ele>1748.41</ele>
        <time>2016-07-08T07:40:06Z</time>
      </trkpt>
      <trkpt lat="45.55319" lon="6.54213">
        <ele>1746.58</ele>
        <time>2016-07-08T07:40:20Z</time>
      </trkpt>
      <trkpt lat="45.55304" lon="6.54195">
        <ele>1756.75</ele>
        <time>2016-07-08T07:40:36Z</time>
      </trkpt>
      <trkpt lat="45.55293" lon="6.54174">
        <ele>1759.5</ele>
        <time>2016-07-08T07:40:57Z</time>
      </trkpt>
      <trkpt lat="45.55287" lon="6.54149">
        <ele>1765.33</ele>
        <time>2016-07-08T07:41:14Z</time>
      </trkpt>
      <trkpt lat="45.55271" lon="6.54136">
        <ele>1766.77</ele>
        <time>2016-07-08T07:41:32Z</time>
      </trkpt>
      <trkpt lat="45.5526" lon="6.54116">
        <ele>1770.5</ele>
        <time>2016-07-08T07:41:50Z</time>
      </trkpt>
      <trkpt lat="45.55241" lon="6.54116">
        <ele>1772.72</ele>
        <time>2016-07-08T07:42:07Z</time>
      </trkpt>
      <trkpt lat="45.55224" lon="6.54107">
        <ele>1775.53</ele>
        <time>2016-07-08T07:42:28Z</time>
      </trkpt>
      <trkpt lat="45.55227" lon="6.54134">
        <ele>1781.38</ele>
        <time>2016-07-08T07:43:08Z</time>
      </trkpt>
      <trkpt lat="45.55236" lon="6.54158">
        <ele>1778.69</ele>
        <time>2016-07-08T07:43:26Z</time>
      </trkpt>
      <trkpt lat="45.55242" lon="6.54184">
        <ele>1777.53</ele>
        <time>2016-07-08T07:43:40Z</time>
      </trkpt>
      <trkpt lat="45.55254" lon="6.54204">
        <ele>1779.54</ele>
        <time>2016-07-08T07:43:54Z</time>
      </trkpt>
      <trkpt lat="45.55253" lon="6.54231">
        <ele>1780.53</ele>
        <time>2016-07-08T07:44:08Z</time>
      </trkpt>
      <trkpt lat="45.55262" lon="6.54255">
        <ele>1792.34</ele>
        <time>2016-07-08T07:44:25Z</time>
      </trkpt>
      <trkpt lat="45.55278" lon="6.54269">
        <ele>1791.21</ele>
        <time>2016-07-08T07:44:36Z</time>
      </trkpt>
      <trkpt lat="45.55294" lon="6.54282">
        <ele>1794.24</ele>
        <time>2016-07-08T07:44:51Z</time>
      </trkpt>
      <trkpt lat="45.55307" lon="6.54301">
        <ele>1796.33</ele>
        <time>2016-07-08T07:45:04Z</time>
      </trkpt>
      <trkpt lat="45.5531" lon="6.54329">
        <ele>1791.73</ele>
        <time>2016-07-08T07:45:20Z</time>
      </trkpt>
      <trkpt lat="45.55325" lon="6.54345">
        <ele>1794.48</ele>
        <time>2016-07-08T07:45:36Z</time>
      </trkpt>
      <trkpt lat="45.55342" lon="6.54352">
        <ele>1800.53</ele>
        <time>2016-07-08T07:45:49Z</time>
      </trkpt>
      <trkpt lat="45.5536" lon="6.54364">
        <ele>1802.73</ele>
        <time>2016-07-08T07:46:04Z</time>
      </trkpt>
      <trkpt lat="45.55378" lon="6.54376">
        <ele>1805.29</ele>
        <time>2016-07-08T07:46:21Z</time>
      </trkpt>
      <trkpt lat="45.55395" lon="6.54386">
        <ele>1806.48</ele>
        <time>2016-07-08T07:46:35Z</time>
      </trkpt>
      <trkpt lat="45.5541" lon="6.54403">
        <ele>1810.49</ele>
        <time>2016-07-08T07:46:48Z</time>
      </trkpt>
      <trkpt lat="45.5542" lon="6.54424">
        <ele>1812.49</ele>
        <time>2016-07-08T07:47:02Z</time>
      </trkpt>
      <trkpt lat="45.55427" lon="6.54449">
        <ele>1814.33</ele>
        <time>2016-07-08T07:47:16Z</time>
      </trkpt>
      <trkpt lat="45.55433" lon="6.54474">
        <ele>1813.13</ele>
        <time>2016-07-08T07:47:31Z</time>
      </trkpt>
      <trkpt lat="45.55447" lon="6.54493">
        <ele>1817.33</ele>
        <time>2016-07-08T07:47:43Z</time>
      </trkpt>
      <trkpt lat="45.55458" lon="6.54513">
        <ele>1819.37</ele>
        <time>2016-07-08T07:47:56Z</time>
      </trkpt>
      <trkpt lat="45.5545" lon="6.54538">
        <ele>1817.5</ele>
        <time>2016-07-08T07:48:10Z</time>
      </trkpt>
      <trkpt lat="45.55438" lon="6.54559">
        <ele>1813.9</ele>
        <time>2016-07-08T07:48:24Z</time>
      </trkpt>
      <trkpt lat="45.55456" lon="6.54571">
        <ele>1819.53</ele>
        <time>2016-07-08T07:49:07Z</time>
      </trkpt>
      <trkpt lat="45.5547" lon="6.54587">
        <ele>1826.53</ele>
        <time>2016-07-08T07:49:27Z</time>
      </trkpt>
      <trkpt lat="45.55483" lon="6.54604">
        <ele>1830.49</ele>
        <time>2016-07-08T07:49:52Z</time>
      </trkpt>
      <trkpt lat="45.55465" lon="6.54608">
        <ele>1839.29</ele>
        <time>2016-07-08T07:50:43Z</time>
      </trkpt>
      <trkpt lat="45.55476" lon="6.54629">
        <ele>1838.6</ele>
        <time>2016-07-08T07:51:16Z</time>
      </trkpt>
      <trkpt lat="45.55491" lon="6.54645">
        <ele>1842.48</ele>
        <time>2016-07-08T07:51:37Z</time>
      </trkpt>
      <trkpt lat="45.55506" lon="6.5466">
        <ele>1848.25</ele>
        <time>2016-07-08T07:51:58Z</time>
      </trkpt>
      <trkpt lat="45.55514" lon="6.54686">
        <ele>1850.57</ele>
        <time>2016-07-08T07:52:19Z</time>
      </trkpt>
      <trkpt lat="45.55534" lon="6.5469">
        <ele>1852.69</ele>
        <time>2016-07-08T07:52:41Z</time>
      </trkpt>
      <trkpt lat="45.55551" lon="6.54697">
        <ele>1857.49</ele>
        <time>2016-07-08T07:53:18Z</time>
      </trkpt>
      <trkpt lat="45.55567" lon="6.54717">
        <ele>1862.29</ele>
        <time>2016-07-08T07:54:01Z</time>
      </trkpt>
      <trkpt lat="45.5558" lon="6.54736">
        <ele>1880.66</ele>
        <time>2016-07-08T07:55:33Z</time>
      </trkpt>
      <trkpt lat="45.55582" lon="6.54763">
        <ele>1871.76</ele>
        <time>2016-07-08T07:55:51Z</time>
      </trkpt>
      <trkpt lat="45.55591" lon="6.54785">
        <ele>1873.36</ele>
        <time>2016-07-08T07:56:05Z</time>
      </trkpt>
      <trkpt lat="45.55606" lon="6.54803">
        <ele>1876.05</ele>
        <time>2016-07-08T07:56:19Z</time>
      </trkpt>
      <trkpt lat="45.5562" lon="6.54821">
        <ele>1877.72</ele>
        <time>2016-07-08T07:56:32Z</time>
      </trkpt>
      <trkpt lat="45.55635" lon="6.5484">
        <ele>1875.78</ele>
        <time>2016-07-08T07:56:44Z</time>
      </trkpt>
      <trkpt lat="45.55654" lon="6.54842">
        <ele>1880.25</ele>
        <time>2016-07-08T07:57:01Z</time>
      </trkpt>
      <trkpt lat="45.55667" lon="6.5486">
        <ele>1879.57</ele>
        <time>2016-07-08T07:57:19Z</time>
      </trkpt>
      <trkpt lat="45.55683" lon="6.54871">
        <ele>1884.49</ele>
        <time>2016-07-08T07:57:30Z</time>
      </trkpt>
      <trkpt lat="45.55698" lon="6.54887">
        <ele>1885.53</ele>
        <time>2016-07-08T07:57:46Z</time>
      </trkpt>
      <trkpt lat="45.55716" lon="6.54899">
        <ele>1888.36</ele>
        <time>2016-07-08T07:57:58Z</time>
      </trkpt>
      <trkpt lat="45.55735" lon="6.54903">
        <ele>1891.42</ele>
        <time>2016-07-08T07:58:13Z</time>
      </trkpt>
      <trkpt lat="45.55717" lon="6.54915">
        <ele>1902.54</ele>
        <time>2016-07-08T07:59:58Z</time>
      </trkpt>
      <trkpt lat="45.55698" lon="6.54927">
        <ele>1905.52</ele>
        <time>2016-07-08T08:00:09Z</time>
      </trkpt>
      <trkpt lat="45.5568" lon="6.54921">
        <ele>1904.72</ele>
        <time>2016-07-08T08:00:27Z</time>
      </trkpt>
      <trkpt lat="45.55662" lon="6.54926">
        <ele>1907.52</ele>
        <time>2016-07-08T08:00:45Z</time>
      </trkpt>
      <trkpt lat="45.55643" lon="6.54923">
        <ele>1913.32</ele>
        <time>2016-07-08T08:01:04Z</time>
      </trkpt>
      <trkpt lat="45.55625" lon="6.54923">
        <ele>1915.34</ele>
        <time>2016-07-08T08:01:23Z</time>
      </trkpt>
      <trkpt lat="45.55607" lon="6.54916">
        <ele>1923.53</ele>
        <time>2016-07-08T08:01:45Z</time>
      </trkpt>
      <trkpt lat="45.55588" lon="6.54915">
        <ele>1922.37</ele>
        <time>2016-07-08T08:02:09Z</time>
      </trkpt>
      <trkpt lat="45.55569" lon="6.54913">
        <ele>1927.34</ele>
        <time>2016-07-08T08:02:28Z</time>
      </trkpt>
      <trkpt lat="45.5555" lon="6.54913">
        <ele>1933.29</ele>
        <time>2016-07-08T08:02:43Z</time>
      </trkpt>
      <trkpt lat="45.55535" lon="6.54899">
        <ele>1932.92</ele>
        <time>2016-07-08T08:03:06Z</time>
      </trkpt>
      <trkpt lat="45.55517" lon="6.54904">
        <ele>1935.68</ele>
        <time>2016-07-08T08:03:23Z</time>
      </trkpt>
      <trkpt lat="45.55499" lon="6.54897">
        <ele>1940.76</ele>
        <time>2016-07-08T08:03:45Z</time>
      </trkpt>
      <trkpt lat="45.5548" lon="6.5489">
        <ele>1946.68</ele>
        <time>2016-07-08T08:04:12Z</time>
      </trkpt>
      <trkpt lat="45.55462" lon="6.54888">
        <ele>1948.48</ele>
        <time>2016-07-08T08:04:29Z</time>
      </trkpt>
      <trkpt lat="45.55444" lon="6.54887">
        <ele>1948.49</ele>
        <time>2016-07-08T08:04:47Z</time>
      </trkpt>
      <trkpt lat="45.55424" lon="6.54885">
        <ele>1955.28</ele>
        <time>2016-07-08T08:05:09Z</time>
      </trkpt>
      <trkpt lat="45.55404" lon="6.54877">
        <ele>1955.77</ele>
        <time>2016-07-08T08:05:30Z</time>
      </trkpt>
      <trkpt lat="45.55385" lon="6.54874">
        <ele>1957.3</ele>
        <time>2016-07-08T08:05:45Z</time>
      </trkpt>
      <trkpt lat="45.55367" lon="6.54876">
        <ele>1956.5</ele>
        <time>2016-07-08T08:06:00Z</time>
      </trkpt>
      <trkpt lat="45.55349" lon="6.54877">
        <ele>1962.35</ele>
        <time>2016-07-08T08:06:16Z</time>
      </trkpt>
      <trkpt lat="45.5533" lon="6.54877">
        <ele>1968.33</ele>
        <time>2016-07-08T08:06:32Z</time>
      </trkpt>
      <trkpt lat="45.55312" lon="6.54874">
        <ele>1971.5</ele>
        <time>2016-07-08T08:06:49Z</time>
      </trkpt>
      <trkpt lat="45.55293" lon="6.54873">
        <ele>1973.51</ele>
        <time>2016-07-08T08:07:06Z</time>
      </trkpt>
      <trkpt lat="45.55274" lon="6.54872">
        <ele>1975.69</ele>
        <time>2016-07-08T08:07:28Z</time>
      </trkpt>
      <trkpt lat="45.55257" lon="6.54885">
        <ele>1975.77</ele>
        <time>2016-07-08T08:07:42Z</time>
      </trkpt>
      <trkpt lat="45.55246" lon="6.54906">
        <ele>1985.52</ele>
        <time>2016-07-08T08:08:22Z</time>
      </trkpt>
      <trkpt lat="45.55227" lon="6.54898">
        <ele>1986.52</ele>
        <time>2016-07-08T08:08:43Z</time>
      </trkpt>
      <trkpt lat="45.55244" lon="6.54909">
        <ele>1985.53</ele>
        <time>2016-07-08T08:10:23Z</time>
      </trkpt>
      <trkpt lat="45.55251" lon="6.54932">
        <ele>1986.53</ele>
        <time>2016-07-08T08:10:43Z</time>
      </trkpt>
      <trkpt lat="45.55245" lon="6.54958">
        <ele>1985.73</ele>
        <time>2016-07-08T08:10:57Z</time>
      </trkpt>
      <trkpt lat="45.55232" lon="6.54977">
        <ele>1985.73</ele>
        <time>2016-07-08T08:11:15Z</time>
      </trkpt>
      <trkpt lat="45.55244" lon="6.54997">
        <ele>1992.49</ele>
        <time>2016-07-08T08:11:54Z</time>
      </trkpt>
      <trkpt lat="45.55236" lon="6.55021">
        <ele>1994.32</ele>
        <time>2016-07-08T08:12:51Z</time>
      </trkpt>
      <trkpt lat="45.55219" lon="6.55029">
        <ele>1995.53</ele>
        <time>2016-07-08T08:13:05Z</time>
      </trkpt>
      <trkpt lat="45.55203" lon="6.55042">
        <ele>2002.73</ele>
        <time>2016-07-08T08:15:03Z</time>
      </trkpt>
      <trkpt lat="45.55187" lon="6.55057">
        <ele>2007.45</ele>
        <time>2016-07-08T08:15:29Z</time>
      </trkpt>
      <trkpt lat="45.55183" lon="6.55062">
        <ele>2012.53</ele>
        <time>2016-07-08T08:16:17Z</time>
      </trkpt>
      <trkpt lat="45.5517" lon="6.55083">
        <ele>2008.69</ele>
        <time>2016-07-08T08:17:02Z</time>
      </trkpt>
      <trkpt lat="45.5516" lon="6.55105">
        <ele>2010.56</ele>
        <time>2016-07-08T08:17:23Z</time>
      </trkpt>
      <trkpt lat="45.55169" lon="6.55128">
        <ele>2021.29</ele>
        <time>2016-07-08T08:17:48Z</time>
      </trkpt>
      <trkpt lat="45.55182" lon="6.55148">
        <ele>2024.29</ele>
        <time>2016-07-08T08:18:13Z</time>
      </trkpt>
      <trkpt lat="45.55168" lon="6.55166">
        <ele>2030.48</ele>
        <time>2016-07-08T08:18:41Z</time>
      </trkpt>
      <trkpt lat="45.55153" lon="6.5518">
        <ele>2025.74</ele>
        <time>2016-07-08T08:19:04Z</time>
      </trkpt>
      <trkpt lat="45.55149" lon="6.55206">
        <ele>2034.53</ele>
        <time>2016-07-08T08:19:34Z</time>
      </trkpt>
      <trkpt lat="45.55143" lon="6.5523">
        <ele>2040.53</ele>
        <time>2016-07-08T08:19:53Z</time>
      </trkpt>
      <trkpt lat="45.55137" lon="6.55255">
        <ele>2043.49</ele>
        <time>2016-07-08T08:20:16Z</time>
      </trkpt>
      <trkpt lat="45.55141" lon="6.55281">
        <ele>2047.52</ele>
        <time>2016-07-08T08:20:36Z</time>
      </trkpt>
      <trkpt lat="45.55142" lon="6.55307">
        <ele>2050.57</ele>
        <time>2016-07-08T08:20:57Z</time>
      </trkpt>
      <trkpt lat="45.55147" lon="6.55332">
        <ele>2052.5</ele>
        <time>2016-07-08T08:21:20Z</time>
      </trkpt>
      <trkpt lat="45.55153" lon="6.55358">
        <ele>2056.33</ele>
        <time>2016-07-08T08:22:16Z</time>
      </trkpt>
      <trkpt lat="45.55165" lon="6.55382">
        <ele>2059.29</ele>
        <time>2016-07-08T08:23:12Z</time>
      </trkpt>
      <trkpt lat="45.55178" lon="6.55402">
        <ele>2064.65</ele>
        <time>2016-07-08T08:23:27Z</time>
      </trkpt>
      <trkpt lat="45.55195" lon="6.55393">
        <ele>2064.52</ele>
        <time>2016-07-08T08:23:45Z</time>
      </trkpt>
      <trkpt lat="45.55213" lon="6.55386">
        <ele>2068.29</ele>
        <time>2016-07-08T08:25:03Z</time>
      </trkpt>
      <trkpt lat="45.55231" lon="6.5538">
        <ele>2073.57</ele>
        <time>2016-07-08T08:25:19Z</time>
      </trkpt>
      <trkpt lat="45.55248" lon="6.55366">
        <ele>2076.33</ele>
        <time>2016-07-08T08:25:50Z</time>
      </trkpt>
      <trkpt lat="45.55266" lon="6.55364">
        <ele>2078.54</ele>
        <time>2016-07-08T08:26:04Z</time>
      </trkpt>
      <trkpt lat="45.55284" lon="6.55373">
        <ele>2078.69</ele>
        <time>2016-07-08T08:26:18Z</time>
      </trkpt>
      <trkpt lat="45.553" lon="6.55385">
        <ele>2078.53</ele>
        <time>2016-07-08T08:26:40Z</time>
      </trkpt>
      <trkpt lat="45.55318" lon="6.55388">
        <ele>2081.33</ele>
        <time>2016-07-08T08:26:55Z</time>
      </trkpt>
      <trkpt lat="45.55336" lon="6.55393">
        <ele>2085.32</ele>
        <time>2016-07-08T08:27:10Z</time>
      </trkpt>
      <trkpt lat="45.55353" lon="6.55405">
        <ele>2091.49</ele>
        <time>2016-07-08T08:27:28Z</time>
      </trkpt>
      <trkpt lat="45.55372" lon="6.55403">
        <ele>2095.45</ele>
        <time>2016-07-08T08:27:48Z</time>
      </trkpt>
      <trkpt lat="45.55389" lon="6.55412">
        <ele>2094.37</ele>
        <time>2016-07-08T08:29:38Z</time>
      </trkpt>
      <trkpt lat="45.55407" lon="6.55416">
        <ele>2097.69</ele>
        <time>2016-07-08T08:30:01Z</time>
      </trkpt>
      <trkpt lat="45.55425" lon="6.55421">
        <ele>2100.57</ele>
        <time>2016-07-08T08:30:24Z</time>
      </trkpt>
      <trkpt lat="45.55443" lon="6.55431">
        <ele>2103.33</ele>
        <time>2016-07-08T08:30:42Z</time>
      </trkpt>
      <trkpt lat="45.55457" lon="6.55448">
        <ele>2108.32</ele>
        <time>2016-07-08T08:30:58Z</time>
      </trkpt>
      <trkpt lat="45.55474" lon="6.55463">
        <ele>2112.33</ele>
        <time>2016-07-08T08:31:18Z</time>
      </trkpt>
      <trkpt lat="45.55489" lon="6.55479">
        <ele>2117.33</ele>
        <time>2016-07-08T08:31:40Z</time>
      </trkpt>
      <trkpt lat="45.55506" lon="6.55486">
        <ele>2119.53</ele>
        <time>2016-07-08T08:32:00Z</time>
      </trkpt>
      <trkpt lat="45.55522" lon="6.55501">
        <ele>2121.12</ele>
        <time>2016-07-08T08:32:21Z</time>
      </trkpt>
      <trkpt lat="45.55537" lon="6.55488">
        <ele>2123.53</ele>
        <time>2016-07-08T08:34:02Z</time>
      </trkpt>
      <trkpt lat="45.55551" lon="6.55506">
        <ele>2128.57</ele>
        <time>2016-07-08T08:35:10Z</time>
      </trkpt>
      <trkpt lat="45.55563" lon="6.55526">
        <ele>2136.33</ele>
        <time>2016-07-08T08:35:29Z</time>
      </trkpt>
      <trkpt lat="45.55578" lon="6.55543">
        <ele>2138.73</ele>
        <time>2016-07-08T08:35:55Z</time>
      </trkpt>
      <trkpt lat="45.55595" lon="6.55554">
        <ele>2142.53</ele>
        <time>2016-07-08T08:36:19Z</time>
      </trkpt>
      <trkpt lat="45.55612" lon="6.55565">
        <ele>2148.1</ele>
        <time>2016-07-08T08:36:40Z</time>
      </trkpt>
      <trkpt lat="45.55627" lon="6.55582">
        <ele>2158.09</ele>
        <time>2016-07-08T08:37:21Z</time>
      </trkpt>
      <trkpt lat="45.55641" lon="6.55601">
        <ele>2158.32</ele>
        <time>2016-07-08T08:37:34Z</time>
      </trkpt>
      <trkpt lat="45.55655" lon="6.55618">
        <ele>2157.49</ele>
        <time>2016-07-08T08:37:50Z</time>
      </trkpt>
      <trkpt lat="45.55669" lon="6.55635">
        <ele>2157.52</ele>
        <time>2016-07-08T08:38:07Z</time>
      </trkpt>
      <trkpt lat="45.55683" lon="6.55653">
        <ele>2153.53</ele>
        <time>2016-07-08T08:38:22Z</time>
      </trkpt>
      <trkpt lat="45.55695" lon="6.55673">
        <ele>2159.5</ele>
        <time>2016-07-08T08:38:37Z</time>
      </trkpt>
      <trkpt lat="45.5571" lon="6.55688">
        <ele>2156.37</ele>
        <time>2016-07-08T08:38:53Z</time>
      </trkpt>
      <trkpt lat="45.55722" lon="6.55708">
        <ele>2163.32</ele>
        <time>2016-07-08T08:39:18Z</time>
      </trkpt>
      <trkpt lat="45.55737" lon="6.55725">
        <ele>2166.32</ele>
        <time>2016-07-08T08:39:42Z</time>
      </trkpt>
      <trkpt lat="45.55751" lon="6.55742">
        <ele>2170.53</ele>
        <time>2016-07-08T08:40:01Z</time>
      </trkpt>
      <trkpt lat="45.55766" lon="6.55758">
        <ele>2176.34</ele>
        <time>2016-07-08T08:40:44Z</time>
      </trkpt>
      <trkpt lat="45.55774" lon="6.55781">
        <ele>2178.53</ele>
        <time>2016-07-08T08:41:08Z</time>
      </trkpt>
      <trkpt lat="45.55789" lon="6.55796">
        <ele>2183.53</ele>
        <time>2016-07-08T08:41:42Z</time>
      </trkpt>
      <trkpt lat="45.55797" lon="6.55819">
        <ele>2190.49</ele>
        <time>2016-07-08T08:42:26Z</time>
      </trkpt>
      <trkpt lat="45.55812" lon="6.55836">
        <ele>2193.46</ele>
        <time>2016-07-08T08:43:02Z</time>
      </trkpt>
      <trkpt lat="45.55829" lon="6.55845">
        <ele>2201.35</ele>
        <time>2016-07-08T08:43:49Z</time>
      </trkpt>
      <trkpt lat="45.55844" lon="6.5586">
        <ele>2206.33</ele>
        <time>2016-07-08T08:44:08Z</time>
      </trkpt>
      <trkpt lat="45.55855" lon="6.55882">
        <ele>2205.72</ele>
        <time>2016-07-08T08:44:52Z</time>
      </trkpt>
      <trkpt lat="45.55866" lon="6.55903">
        <ele>2210.36</ele>
        <time>2016-07-08T08:45:07Z</time>
      </trkpt>
      <trkpt lat="45.55876" lon="6.55924">
        <ele>2209.37</ele>
        <time>2016-07-08T08:45:23Z</time>
      </trkpt>
      <trkpt lat="45.55886" lon="6.55947">
        <ele>2212.53</ele>
        <time>2016-07-08T08:45:38Z</time>
      </trkpt>
      <trkpt lat="45.55899" lon="6.55968">
        <ele>2198.86</ele>
        <time>2016-07-08T08:46:37Z</time>
      </trkpt>
      <trkpt lat="45.5591" lon="6.55988">
        <ele>2199.95</ele>
        <time>2016-07-08T08:46:50Z</time>
      </trkpt>
      <trkpt lat="45.55925" lon="6.56002">
        <ele>2211</ele>
        <time>2016-07-08T08:47:06Z</time>
      </trkpt>
      <trkpt lat="45.55943" lon="6.56014">
        <ele>2217.77</ele>
        <time>2016-07-08T08:47:54Z</time>
      </trkpt>
      <trkpt lat="45.5595" lon="6.56038">
        <ele>2221.73</ele>
        <time>2016-07-08T08:48:10Z</time>
      </trkpt>
      <trkpt lat="45.55966" lon="6.56053">
        <ele>2228.31</ele>
        <time>2016-07-08T08:48:31Z</time>
      </trkpt>
      <trkpt lat="45.55974" lon="6.56076">
        <ele>2230.33</ele>
        <time>2016-07-08T08:49:05Z</time>
      </trkpt>
      <trkpt lat="45.55986" lon="6.56097">
        <ele>2240.32</ele>
        <time>2016-07-08T08:50:14Z</time>
      </trkpt>
      <trkpt lat="45.56" lon="6.56115">
        <ele>2245.33</ele>
        <time>2016-07-08T08:50:36Z</time>
      </trkpt>
      <trkpt lat="45.56015" lon="6.5613">
        <ele>2254.52</ele>
        <time>2016-07-08T08:51:03Z</time>
      </trkpt>
      <trkpt lat="45.56025" lon="6.56151">
        <ele>2260.31</ele>
        <time>2016-07-08T08:51:41Z</time>
      </trkpt>
      <trkpt lat="45.56038" lon="6.5617">
        <ele>2265.36</ele>
        <time>2016-07-08T08:52:34Z</time>
      </trkpt>
      <trkpt lat="45.56052" lon="6.56186">
        <ele>2272.33</ele>
        <time>2016-07-08T08:53:36Z</time>
      </trkpt>
      <trkpt lat="45.56067" lon="6.562">
        <ele>2280.29</ele>
        <time>2016-07-08T08:55:21Z</time>
      </trkpt>
      <trkpt lat="45.56079" lon="6.5622">
        <ele>2278.33</ele>
        <time>2016-07-08T08:56:00Z</time>
      </trkpt>
      <trkpt lat="45.56097" lon="6.56219">
        <ele>2191.09</ele>
        <time>2016-07-08T09:02:33Z</time>
      </trkpt>
      <trkpt lat="45.56116" lon="6.56218">
        <ele>2284.51</ele>
        <time>2016-07-08T09:03:02Z</time>
      </trkpt>
      <trkpt lat="45.56128" lon="6.56198">
        <ele>2284.4</ele>
        <time>2016-07-08T09:03:29Z</time>
      </trkpt>
      <trkpt lat="45.56147" lon="6.56192">
        <ele>2281.49</ele>
        <time>2016-07-08T09:03:45Z</time>
      </trkpt>
      <trkpt lat="45.56129" lon="6.56182">
        <ele>2282.33</ele>
        <time>2016-07-08T09:04:37Z</time>
      </trkpt>
      <trkpt lat="45.56148" lon="6.56178">
        <ele>2277.22</ele>
        <time>2016-07-08T09:05:06Z</time>
      </trkpt>
      <trkpt lat="45.56166" lon="6.56185">
        <ele>2272.61</ele>
        <time>2016-07-08T09:05:21Z</time>
      </trkpt>
      <trkpt lat="45.56186" lon="6.56187">
        <ele>2269.7</ele>
        <time>2016-07-08T09:05:33Z</time>
      </trkpt>
      <trkpt lat="45.56204" lon="6.56181">
        <ele>2268.93</ele>
        <time>2016-07-08T09:06:12Z</time>
      </trkpt>
      <trkpt lat="45.56223" lon="6.56181">
        <ele>2253.37</ele>
        <time>2016-07-08T09:06:32Z</time>
      </trkpt>
      <trkpt lat="45.56241" lon="6.5618">
        <ele>2251.54</ele>
        <time>2016-07-08T09:06:46Z</time>
      </trkpt>
      <trkpt lat="45.56259" lon="6.56173">
        <ele>2247.36</ele>
        <time>2016-07-08T09:07:04Z</time>
      </trkpt>
      <trkpt lat="45.56277" lon="6.5617">
        <ele>2245.53</ele>
        <time>2016-07-08T09:07:16Z</time>
      </trkpt>
      <trkpt lat="45.56294" lon="6.56156">
        <ele>2237.53</ele>
        <time>2016-07-08T09:07:43Z</time>
      </trkpt>
      <trkpt lat="45.56312" lon="6.56147">
        <ele>2194.6</ele>
        <time>2016-07-08T09:08:05Z</time>
      </trkpt>
      <trkpt lat="45.5633" lon="6.56151">
        <ele>2219.14</ele>
        <time>2016-07-08T09:08:17Z</time>
      </trkpt>
      <trkpt lat="45.56349" lon="6.56148">
        <ele>2238.83</ele>
        <time>2016-07-08T09:08:29Z</time>
      </trkpt>
      <trkpt lat="45.56366" lon="6.56157">
        <ele>2239.53</ele>
        <time>2016-07-08T09:08:42Z</time>
      </trkpt>
      <trkpt lat="45.56384" lon="6.56157">
        <ele>2238.29</ele>
        <time>2016-07-08T09:08:58Z</time>
      </trkpt>
      <trkpt lat="45.56404" lon="6.56167">
        <ele>2239.18</ele>
        <time>2016-07-08T09:09:38Z</time>
      </trkpt>
      <trkpt lat="45.56421" lon="6.56179">
        <ele>2244.27</ele>
        <time>2016-07-08T09:10:12Z</time>
      </trkpt>
      <trkpt lat="45.56405" lon="6.56193">
        <ele>2242.63</ele>
        <time>2016-07-08T09:10:34Z</time>
      </trkpt>
      <trkpt lat="45.56418" lon="6.56213">
        <ele>2231.79</ele>
        <time>2016-07-08T09:11:00Z</time>
      </trkpt>
      <trkpt lat="45.56433" lon="6.56226">
        <ele>2227.7</ele>
        <time>2016-07-08T09:11:20Z</time>
      </trkpt>
      <trkpt lat="45.5645" lon="6.56239">
        <ele>2224.73</ele>
        <time>2016-07-08T09:11:36Z</time>
      </trkpt>
      <trkpt lat="45.56459" lon="6.56263">
        <ele>2220.49</ele>
        <time>2016-07-08T09:11:57Z</time>
      </trkpt>
      <trkpt lat="45.56465" lon="6.56236">
        <ele>2222.5</ele>
        <time>2016-07-08T09:14:16Z</time>
      </trkpt>
      <trkpt lat="45.56449" lon="6.56219">
        <ele>2216.77</ele>
        <time>2016-07-08T09:14:35Z</time>
      </trkpt>
      <trkpt lat="45.56455" lon="6.56217">
        <ele>2229.53</ele>
        <time>2016-07-08T09:20:13Z</time>
      </trkpt>
      <trkpt lat="45.56469" lon="6.56234">
        <ele>2223.53</ele>
        <time>2016-07-08T09:27:48Z</time>
      </trkpt>
      <trkpt lat="45.56487" lon="6.56237">
        <ele>2227.72</ele>
        <time>2016-07-08T09:28:52Z</time>
      </trkpt>
      <trkpt lat="45.56504" lon="6.56245">
        <ele>2227.33</ele>
        <time>2016-07-08T09:29:24Z</time>
      </trkpt>
      <trkpt lat="45.5652" lon="6.56257">
        <ele>2236.33</ele>
        <time>2016-07-08T09:29:46Z</time>
      </trkpt>
      <trkpt lat="45.56537" lon="6.56271">
        <ele>2243.52</ele>
        <time>2016-07-08T09:30:36Z</time>
      </trkpt>
      <trkpt lat="45.56555" lon="6.56265">
        <ele>2247.53</ele>
        <time>2016-07-08T09:31:18Z</time>
      </trkpt>
      <trkpt lat="45.56569" lon="6.56248">
        <ele>2247.48</ele>
        <time>2016-07-08T09:32:41Z</time>
      </trkpt>
      <trkpt lat="45.56587" lon="6.56253">
        <ele>2258.76</ele>
        <time>2016-07-08T09:34:02Z</time>
      </trkpt>
      <trkpt lat="45.56604" lon="6.5626">
        <ele>2264.53</ele>
        <time>2016-07-08T09:34:41Z</time>
      </trkpt>
      <trkpt lat="45.56621" lon="6.56248">
        <ele>2275.57</ele>
        <time>2016-07-08T09:35:41Z</time>
      </trkpt>
      <trkpt lat="45.56639" lon="6.56241">
        <ele>2276.52</ele>
        <time>2016-07-08T09:36:52Z</time>
      </trkpt>
      <trkpt lat="45.56656" lon="6.56245">
        <ele>2285.52</ele>
        <time>2016-07-08T09:37:21Z</time>
      </trkpt>
      <trkpt lat="45.56673" lon="6.56257">
        <ele>2289.53</ele>
        <time>2016-07-08T09:37:43Z</time>
      </trkpt>
      <trkpt lat="45.56687" lon="6.56274">
        <ele>2287.54</ele>
        <time>2016-07-08T09:38:02Z</time>
      </trkpt>
      <trkpt lat="45.56707" lon="6.56278">
        <ele>2284.58</ele>
        <time>2016-07-08T09:38:28Z</time>
      </trkpt>
      <trkpt lat="45.56724" lon="6.56289">
        <ele>2286.53</ele>
        <time>2016-07-08T09:38:41Z</time>
      </trkpt>
      <trkpt lat="45.56742" lon="6.56292">
        <ele>2286.72</ele>
        <time>2016-07-08T09:38:48Z</time>
      </trkpt>
      <trkpt lat="45.5676" lon="6.56291">
        <ele>2289.49</ele>
        <time>2016-07-08T09:38:59Z</time>
      </trkpt>
      <trkpt lat="45.56779" lon="6.56292">
        <ele>2294.36</ele>
        <time>2016-07-08T09:39:28Z</time>
      </trkpt>
      <trkpt lat="45.56796" lon="6.56298">
        <ele>2295.68</ele>
        <time>2016-07-08T09:40:30Z</time>
      </trkpt>
      <trkpt lat="45.56814" lon="6.56305">
        <ele>2304.53</ele>
        <time>2016-07-08T09:40:59Z</time>
      </trkpt>
      <trkpt lat="45.56832" lon="6.5631">
        <ele>2309.53</ele>
        <time>2016-07-08T09:41:34Z</time>
      </trkpt>
      <trkpt lat="45.5685" lon="6.56304">
        <ele>2316.52</ele>
        <time>2016-07-08T09:43:12Z</time>
      </trkpt>
      <trkpt lat="45.56868" lon="6.56303">
        <ele>2312.53</ele>
        <time>2016-07-08T09:43:25Z</time>
      </trkpt>
      <trkpt lat="45.56885" lon="6.56291">
        <ele>2317.33</ele>
        <time>2016-07-08T09:43:46Z</time>
      </trkpt>
      <trkpt lat="45.56903" lon="6.56288">
        <ele>2319.53</ele>
        <time>2016-07-08T09:44:08Z</time>
      </trkpt>
      <trkpt lat="45.56921" lon="6.56285">
        <ele>2317.53</ele>
        <time>2016-07-08T09:44:33Z</time>
      </trkpt>
      <trkpt lat="45.56939" lon="6.56295">
        <ele>2318.32</ele>
        <time>2016-07-08T09:44:54Z</time>
      </trkpt>
      <trkpt lat="45.56957" lon="6.56301">
        <ele>2318.54</ele>
        <time>2016-07-08T09:45:09Z</time>
      </trkpt>
      <trkpt lat="45.56974" lon="6.56316">
        <ele>2325.65</ele>
        <time>2016-07-08T09:45:49Z</time>
      </trkpt>
      <trkpt lat="45.5699" lon="6.56328">
        <ele>2321.25</ele>
        <time>2016-07-08T09:45:58Z</time>
      </trkpt>
      <trkpt lat="45.57009" lon="6.56334">
        <ele>2329.51</ele>
        <time>2016-07-08T09:46:16Z</time>
      </trkpt>
      <trkpt lat="45.57027" lon="6.56336">
        <ele>2333.54</ele>
        <time>2016-07-08T09:51:36Z</time>
      </trkpt>
      <trkpt lat="45.57045" lon="6.56337">
        <ele>2322.21</ele>
        <time>2016-07-08T09:52:48Z</time>
      </trkpt>
      <trkpt lat="45.57064" lon="6.56338">
        <ele>2323.69</ele>
        <time>2016-07-08T09:53:06Z</time>
      </trkpt>
      <trkpt lat="45.57082" lon="6.56335">
        <ele>2321.57</ele>
        <time>2016-07-08T09:53:17Z</time>
      </trkpt>
      <trkpt lat="45.57101" lon="6.56327">
        <ele>2318.53</ele>
        <time>2016-07-08T09:53:31Z</time>
      </trkpt>
      <trkpt lat="45.5712" lon="6.56329">
        <ele>2314.94</ele>
        <time>2016-07-08T09:53:47Z</time>
      </trkpt>
      <trkpt lat="45.57138" lon="6.56319">
        <ele>2308.15</ele>
        <time>2016-07-08T09:54:26Z</time>
      </trkpt>
      <trkpt lat="45.57155" lon="6.56308">
        <ele>2301.62</ele>
        <time>2016-07-08T09:54:42Z</time>
      </trkpt>
      <trkpt lat="45.57173" lon="6.56312">
        <ele>2299.35</ele>
        <time>2016-07-08T09:54:56Z</time>
      </trkpt>
      <trkpt lat="45.57189" lon="6.56325">
        <ele>2297.37</ele>
        <time>2016-07-08T09:55:08Z</time>
      </trkpt>
      <trkpt lat="45.57207" lon="6.56333">
        <ele>2297.54</ele>
        <time>2016-07-08T09:55:18Z</time>
      </trkpt>
      <trkpt lat="45.57225" lon="6.56335">
        <ele>2296.93</ele>
        <time>2016-07-08T09:55:32Z</time>
      </trkpt>
      <trkpt lat="45.57243" lon="6.56329">
        <ele>2304.28</ele>
        <time>2016-07-08T09:55:57Z</time>
      </trkpt>
      <trkpt lat="45.57261" lon="6.56333">
        <ele>2311.54</ele>
        <time>2016-07-08T09:57:03Z</time>
      </trkpt>
      <trkpt lat="45.5728" lon="6.56328">
        <ele>2322.49</ele>
        <time>2016-07-08T09:57:33Z</time>
      </trkpt>
      <trkpt lat="45.57298" lon="6.56326">
        <ele>2318.53</ele>
        <time>2016-07-08T09:58:00Z</time>
      </trkpt>
      <trkpt lat="45.57316" lon="6.56317">
        <ele>2323.53</ele>
        <time>2016-07-08T09:58:42Z</time>
      </trkpt>
      <trkpt lat="45.57334" lon="6.56313">
        <ele>2314.58</ele>
        <time>2016-07-08T09:59:04Z</time>
      </trkpt>
      <trkpt lat="45.57351" lon="6.56304">
        <ele>2319.49</ele>
        <time>2016-07-08T09:59:44Z</time>
      </trkpt>
      <trkpt lat="45.57369" lon="6.56304">
        <ele>2320.5</ele>
        <time>2016-07-08T10:00:02Z</time>
      </trkpt>
      <trkpt lat="45.57387" lon="6.56303">
        <ele>2319.53</ele>
        <time>2016-07-08T10:00:24Z</time>
      </trkpt>
      <trkpt lat="45.57406" lon="6.56303">
        <ele>2325.32</ele>
        <time>2016-07-08T10:00:42Z</time>
      </trkpt>
      <trkpt lat="45.57424" lon="6.56299">
        <ele>2328.69</ele>
        <time>2016-07-08T10:01:00Z</time>
      </trkpt>
      <trkpt lat="45.57443" lon="6.56305">
        <ele>2330.49</ele>
        <time>2016-07-08T10:01:16Z</time>
      </trkpt>
      <trkpt lat="45.57457" lon="6.56321">
        <ele>2331.54</ele>
        <time>2016-07-08T10:01:50Z</time>
      </trkpt>
      <trkpt lat="45.57466" lon="6.56343">
        <ele>2336.48</ele>
        <time>2016-07-08T10:02:48Z</time>
      </trkpt>
      <trkpt lat="45.57475" lon="6.56367">
        <ele>2325.48</ele>
        <time>2016-07-08T10:03:03Z</time>
      </trkpt>
      <trkpt lat="45.57485" lon="6.56391">
        <ele>2323.52</ele>
        <time>2016-07-08T10:03:20Z</time>
      </trkpt>
      <trkpt lat="45.57491" lon="6.56416">
        <ele>2323.53</ele>
        <time>2016-07-08T10:03:34Z</time>
      </trkpt>
      <trkpt lat="45.57507" lon="6.56429">
        <ele>2327.54</ele>
        <time>2016-07-08T10:03:49Z</time>
      </trkpt>
      <trkpt lat="45.57521" lon="6.56447">
        <ele>2334.53</ele>
        <time>2016-07-08T10:04:39Z</time>
      </trkpt>
      <trkpt lat="45.57536" lon="6.56463">
        <ele>2334.53</ele>
        <time>2016-07-08T10:05:21Z</time>
      </trkpt>
      <trkpt lat="45.57551" lon="6.56479">
        <ele>2334.56</ele>
        <time>2016-07-08T10:05:33Z</time>
      </trkpt>
      <trkpt lat="45.57566" lon="6.56494">
        <ele>2333.73</ele>
        <time>2016-07-08T10:05:49Z</time>
      </trkpt>
      <trkpt lat="45.57574" lon="6.56517">
        <ele>2336.48</ele>
        <time>2016-07-08T10:06:36Z</time>
      </trkpt>
      <trkpt lat="45.57585" lon="6.56539">
        <ele>2337.32</ele>
        <time>2016-07-08T10:06:50Z</time>
      </trkpt>
      <trkpt lat="45.57599" lon="6.56556">
        <ele>2343.53</ele>
        <time>2016-07-08T10:07:12Z</time>
      </trkpt>
      <trkpt lat="45.57611" lon="6.56575">
        <ele>2345.54</ele>
        <time>2016-07-08T10:07:27Z</time>
      </trkpt>
      <trkpt lat="45.57626" lon="6.56592">
        <ele>2347.53</ele>
        <time>2016-07-08T10:07:47Z</time>
      </trkpt>
      <trkpt lat="45.57638" lon="6.56611">
        <ele>2347.37</ele>
        <time>2016-07-08T10:08:44Z</time>
      </trkpt>
      <trkpt lat="45.57655" lon="6.56624">
        <ele>2342.5</ele>
        <time>2016-07-08T10:09:28Z</time>
      </trkpt>
      <trkpt lat="45.5767" lon="6.56638">
        <ele>2350.25</ele>
        <time>2016-07-08T10:09:43Z</time>
      </trkpt>
      <trkpt lat="45.57685" lon="6.56653">
        <ele>2351.94</ele>
        <time>2016-07-08T10:10:00Z</time>
      </trkpt>
      <trkpt lat="45.57692" lon="6.56677">
        <ele>2350.33</ele>
        <time>2016-07-08T10:10:15Z</time>
      </trkpt>
      <trkpt lat="45.57707" lon="6.56694">
        <ele>2352.5</ele>
        <time>2016-07-08T10:10:29Z</time>
      </trkpt>
      <trkpt lat="45.57723" lon="6.56708">
        <ele>2355.38</ele>
        <time>2016-07-08T10:10:56Z</time>
      </trkpt>
      <trkpt lat="45.57733" lon="6.5673">
        <ele>2357.63</ele>
        <time>2016-07-08T10:11:17Z</time>
      </trkpt>
      <trkpt lat="45.57741" lon="6.56754">
        <ele>2353.58</ele>
        <time>2016-07-08T10:11:41Z</time>
      </trkpt>
      <trkpt lat="45.57757" lon="6.56775">
        <ele>2349.53</ele>
        <time>2016-07-08T10:12:05Z</time>
      </trkpt>
      <trkpt lat="45.57754" lon="6.56811">
        <ele>2353.27</ele>
        <time>2016-07-08T10:12:19Z</time>
      </trkpt>
      <trkpt lat="45.57769" lon="6.56825">
        <ele>2347.93</ele>
        <time>2016-07-08T10:12:39Z</time>
      </trkpt>
      <trkpt lat="45.57767" lon="6.56852">
        <ele>2345.38</ele>
        <time>2016-07-08T10:12:58Z</time>
      </trkpt>
      <trkpt lat="45.5777" lon="6.56879">
        <ele>2354.33</ele>
        <time>2016-07-08T10:13:13Z</time>
      </trkpt>
      <trkpt lat="45.57777" lon="6.56905">
        <ele>2354.92</ele>
        <time>2016-07-08T10:14:00Z</time>
      </trkpt>
      <trkpt lat="45.57785" lon="6.56931">
        <ele>2357.37</ele>
        <time>2016-07-08T10:14:12Z</time>
      </trkpt>
      <trkpt lat="45.57788" lon="6.56956">
        <ele>2357.53</ele>
        <time>2016-07-08T10:16:07Z</time>
      </trkpt>
      <trkpt lat="45.5779" lon="6.56983">
        <ele>2357.5</ele>
        <time>2016-07-08T10:16:27Z</time>
      </trkpt>
      <trkpt lat="45.57794" lon="6.57009">
        <ele>2361.29</ele>
        <time>2016-07-08T10:16:49Z</time>
      </trkpt>
      <trkpt lat="45.57795" lon="6.57035">
        <ele>2366.49</ele>
        <time>2016-07-08T10:17:19Z</time>
      </trkpt>
      <trkpt lat="45.57807" lon="6.57057">
        <ele>2361.57</ele>
        <time>2016-07-08T10:18:07Z</time>
      </trkpt>
      <trkpt lat="45.57823" lon="6.57074">
        <ele>2364.72</ele>
        <time>2016-07-08T10:18:22Z</time>
      </trkpt>
      <trkpt lat="45.57832" lon="6.57098">
        <ele>2369.08</ele>
        <time>2016-07-08T10:18:47Z</time>
      </trkpt>
      <trkpt lat="45.5785" lon="6.57108">
        <ele>2366.77</ele>
        <time>2016-07-08T10:19:24Z</time>
      </trkpt>
      <trkpt lat="45.57856" lon="6.57135">
        <ele>2362.49</ele>
        <time>2016-07-08T10:20:10Z</time>
      </trkpt>
      <trkpt lat="45.57865" lon="6.57159">
        <ele>2356.73</ele>
        <time>2016-07-08T10:20:21Z</time>
      </trkpt>
      <trkpt lat="45.57873" lon="6.57183">
        <ele>2356.49</ele>
        <time>2016-07-08T10:20:34Z</time>
      </trkpt>
      <trkpt lat="45.57884" lon="6.57207">
        <ele>2358.69</ele>
        <time>2016-07-08T10:20:54Z</time>
      </trkpt>
      <trkpt lat="45.57898" lon="6.57226">
        <ele>2356.77</ele>
        <time>2016-07-08T10:21:11Z</time>
      </trkpt>
      <trkpt lat="45.57909" lon="6.57247">
        <ele>2361.5</ele>
        <time>2016-07-08T10:21:40Z</time>
      </trkpt>
      <trkpt lat="45.57926" lon="6.57257">
        <ele>2365.96</ele>
        <time>2016-07-08T10:22:03Z</time>
      </trkpt>
      <trkpt lat="45.5791" lon="6.57246">
        <ele>2373.19</ele>
        <time>2016-07-08T10:23:34Z</time>
      </trkpt>
      <trkpt lat="45.57892" lon="6.57247">
        <ele>2370.88</ele>
        <time>2016-07-08T10:23:56Z</time>
      </trkpt>
      <trkpt lat="45.57874" lon="6.57255">
        <ele>2364.63</ele>
        <time>2016-07-08T10:24:16Z</time>
      </trkpt>
      <trkpt lat="45.57861" lon="6.57273">
        <ele>2354.89</ele>
        <time>2016-07-08T10:24:38Z</time>
      </trkpt>
      <trkpt lat="45.57849" lon="6.57293">
        <ele>2352.73</ele>
        <time>2016-07-08T10:25:31Z</time>
      </trkpt>
      <trkpt lat="45.57867" lon="6.57298">
        <ele>2352.73</ele>
        <time>2016-07-08T10:25:49Z</time>
      </trkpt>
      <trkpt lat="45.57886" lon="6.57297">
        <ele>2345.34</ele>
        <time>2016-07-08T10:26:19Z</time>
      </trkpt>
      <trkpt lat="45.57895" lon="6.57321">
        <ele>2330.73</ele>
        <time>2016-07-08T10:27:05Z</time>
      </trkpt>
      <trkpt lat="45.5791" lon="6.57337">
        <ele>2321.51</ele>
        <time>2016-07-08T10:27:33Z</time>
      </trkpt>
      <trkpt lat="45.57927" lon="6.57351">
        <ele>2315.33</ele>
        <time>2016-07-08T10:27:46Z</time>
      </trkpt>
      <trkpt lat="45.57942" lon="6.57366">
        <ele>2319.21</ele>
        <time>2016-07-08T10:28:06Z</time>
      </trkpt>
      <trkpt lat="45.5796" lon="6.57378">
        <ele>2320.12</ele>
        <time>2016-07-08T10:28:19Z</time>
      </trkpt>
      <trkpt lat="45.57977" lon="6.57388">
        <ele>2305.57</ele>
        <time>2016-07-08T10:28:45Z</time>
      </trkpt>
      <trkpt lat="45.57994" lon="6.57401">
        <ele>2298.69</ele>
        <time>2016-07-08T10:29:02Z</time>
      </trkpt>
      <trkpt lat="45.58011" lon="6.57414">
        <ele>2300.52</ele>
        <time>2016-07-08T10:29:13Z</time>
      </trkpt>
      <trkpt lat="45.58028" lon="6.57405">
        <ele>2304.34</ele>
        <time>2016-07-08T10:29:39Z</time>
      </trkpt>
      <trkpt lat="45.58048" lon="6.57408">
        <ele>2304.7</ele>
        <time>2016-07-08T10:29:57Z</time>
      </trkpt>
      <trkpt lat="45.58066" lon="6.57415">
        <ele>2305.93</ele>
        <time>2016-07-08T10:30:32Z</time>
      </trkpt>
      <trkpt lat="45.58081" lon="6.5743">
        <ele>2305.52</ele>
        <time>2016-07-08T10:30:44Z</time>
      </trkpt>
      <trkpt lat="45.58096" lon="6.57444">
        <ele>2305.52</ele>
        <time>2016-07-08T10:31:00Z</time>
      </trkpt>
      <trkpt lat="45.5811" lon="6.57463">
        <ele>2310.37</ele>
        <time>2016-07-08T10:31:41Z</time>
      </trkpt>
      <trkpt lat="45.58124" lon="6.5748">
        <ele>2310.89</ele>
        <time>2016-07-08T10:31:59Z</time>
      </trkpt>
      <trkpt lat="45.58142" lon="6.57475">
        <ele>2318.33</ele>
        <time>2016-07-08T10:32:35Z</time>
      </trkpt>
      <trkpt lat="45.58159" lon="6.57465">
        <ele>2332.62</ele>
        <time>2016-07-08T10:33:46Z</time>
      </trkpt>
      <trkpt lat="45.58177" lon="6.57472">
        <ele>2328.67</ele>
        <time>2016-07-08T10:34:51Z</time>
      </trkpt>
      <trkpt lat="45.58194" lon="6.57479">
        <ele>2331.53</ele>
        <time>2016-07-08T10:35:10Z</time>
      </trkpt>
      <trkpt lat="45.58212" lon="6.57485">
        <ele>2333.33</ele>
        <time>2016-07-08T10:35:29Z</time>
      </trkpt>
      <trkpt lat="45.58227" lon="6.57468">
        <ele>2331.53</ele>
        <time>2016-07-08T10:35:39Z</time>
      </trkpt>
      <trkpt lat="45.58245" lon="6.57458">
        <ele>2331.73</ele>
        <time>2016-07-08T10:35:57Z</time>
      </trkpt>
      <trkpt lat="45.58254" lon="6.57436">
        <ele>2343.34</ele>
        <time>2016-07-08T10:36:32Z</time>
      </trkpt>
      <trkpt lat="45.58252" lon="6.57409">
        <ele>2352.41</ele>
        <time>2016-07-08T10:36:48Z</time>
      </trkpt>
      <trkpt lat="45.5827" lon="6.57409">
        <ele>2349.55</ele>
        <time>2016-07-08T10:37:22Z</time>
      </trkpt>
      <trkpt lat="45.58288" lon="6.57412">
        <ele>2347.54</ele>
        <time>2016-07-08T10:37:39Z</time>
      </trkpt>
      <trkpt lat="45.5828" lon="6.57385">
        <ele>2363.32</ele>
        <time>2016-07-08T10:38:00Z</time>
      </trkpt>
      <trkpt lat="45.58265" lon="6.57372">
        <ele>2374.53</ele>
        <time>2016-07-08T10:38:21Z</time>
      </trkpt>
      <trkpt lat="45.58282" lon="6.57379">
        <ele>2370.53</ele>
        <time>2016-07-08T10:38:38Z</time>
      </trkpt>
      <trkpt lat="45.58283" lon="6.57351">
        <ele>2379.57</ele>
        <time>2016-07-08T10:39:02Z</time>
      </trkpt>
      <trkpt lat="45.58292" lon="6.57328">
        <ele>2383.29</ele>
        <time>2016-07-08T10:39:45Z</time>
      </trkpt>
      <trkpt lat="45.58301" lon="6.57306">
        <ele>2377.37</ele>
        <time>2016-07-08T10:41:19Z</time>
      </trkpt>
      <trkpt lat="45.58302" lon="6.5728">
        <ele>2383.73</ele>
        <time>2016-07-08T10:42:10Z</time>
      </trkpt>
      <trkpt lat="45.58318" lon="6.57268">
        <ele>2388.72</ele>
        <time>2016-07-08T10:43:42Z</time>
      </trkpt>
      <trkpt lat="45.58307" lon="6.57246">
        <ele>2392.39</ele>
        <time>2016-07-08T10:44:00Z</time>
      </trkpt>
      <trkpt lat="45.58325" lon="6.57242">
        <ele>2398.53</ele>
        <time>2016-07-08T10:44:48Z</time>
      </trkpt>
      <trkpt lat="45.58343" lon="6.57245">
        <ele>2399.59</ele>
        <time>2016-07-08T10:45:52Z</time>
      </trkpt>
      <trkpt lat="45.58362" lon="6.57234">
        <ele>2416.4</ele>
        <time>2016-07-08T10:46:30Z</time>
      </trkpt>
      <trkpt lat="45.58378" lon="6.57223">
        <ele>2424.42</ele>
        <time>2016-07-08T10:47:13Z</time>
      </trkpt>
      <trkpt lat="45.58396" lon="6.57216">
        <ele>2436.36</ele>
        <time>2016-07-08T10:47:53Z</time>
      </trkpt>
      <trkpt lat="45.58414" lon="6.57213">
        <ele>2432.25</ele>
        <time>2016-07-08T10:48:34Z</time>
      </trkpt>
      <trkpt lat="45.58428" lon="6.57194">
        <ele>2428.49</ele>
        <time>2016-07-08T10:48:50Z</time>
      </trkpt>
      <trkpt lat="45.58446" lon="6.57187">
        <ele>2442.88</ele>
        <time>2016-07-08T10:49:38Z</time>
      </trkpt>
      <trkpt lat="45.58462" lon="6.57174">
        <ele>2439.78</ele>
        <time>2016-07-08T10:50:09Z</time>
      </trkpt>
      <trkpt lat="45.58477" lon="6.57156">
        <ele>2454.71</ele>
        <time>2016-07-08T10:51:50Z</time>
      </trkpt>
      <trkpt lat="45.58492" lon="6.57141">
        <ele>2453.82</ele>
        <time>2016-07-08T10:52:07Z</time>
      </trkpt>
      <trkpt lat="45.58504" lon="6.57135">
        <ele>2451.53</ele>
        <time>2016-07-08T10:59:17Z</time>
      </trkpt>
      <trkpt lat="45.58518" lon="6.57116">
        <ele>2457.57</ele>
        <time>2016-07-08T11:08:59Z</time>
      </trkpt>
      <trkpt lat="45.58527" lon="6.57139">
        <ele>2460.31</ele>
        <time>2016-07-08T11:12:20Z</time>
      </trkpt>
      <trkpt lat="45.5854" lon="6.57161">
        <ele>2453.71</ele>
        <time>2016-07-08T11:12:28Z</time>
      </trkpt>
      <trkpt lat="45.58559" lon="6.57173">
        <ele>2443.86</ele>
        <time>2016-07-08T11:12:33Z</time>
      </trkpt>
      <trkpt lat="45.58574" lon="6.5719">
        <ele>2436.58</ele>
        <time>2016-07-08T11:12:40Z</time>
      </trkpt>
      <trkpt lat="45.58592" lon="6.57198">
        <ele>2433.58</ele>
        <time>2016-07-08T11:12:49Z</time>
      </trkpt>
      <trkpt lat="45.58609" lon="6.57208">
        <ele>2428.3</ele>
        <time>2016-07-08T11:13:00Z</time>
      </trkpt>
      <trkpt lat="45.58624" lon="6.57227">
        <ele>2420.81</ele>
        <time>2016-07-08T11:13:09Z</time>
      </trkpt>
      <trkpt lat="45.58643" lon="6.57238">
        <ele>2423.76</ele>
        <time>2016-07-08T11:13:16Z</time>
      </trkpt>
      <trkpt lat="45.58661" lon="6.5725">
        <ele>2420.75</ele>
        <time>2016-07-08T11:13:24Z</time>
      </trkpt>
      <trkpt lat="45.58678" lon="6.57264">
        <ele>2416.74</ele>
        <time>2016-07-08T11:13:30Z</time>
      </trkpt>
      <trkpt lat="45.58695" lon="6.57275">
        <ele>2414.5</ele>
        <time>2016-07-08T11:13:37Z</time>
      </trkpt>
      <trkpt lat="45.58713" lon="6.57273">
        <ele>2415.5</ele>
        <time>2016-07-08T11:13:52Z</time>
      </trkpt>
      <trkpt lat="45.58732" lon="6.57264">
        <ele>2409.95</ele>
        <time>2016-07-08T11:14:04Z</time>
      </trkpt>
      <trkpt lat="45.58744" lon="6.57243">
        <ele>2399.29</ele>
        <time>2016-07-08T11:15:32Z</time>
      </trkpt>
      <trkpt lat="45.58763" lon="6.57253">
        <ele>2396.59</ele>
        <time>2016-07-08T11:15:41Z</time>
      </trkpt>
      <trkpt lat="45.58781" lon="6.57257">
        <ele>2394.38</ele>
        <time>2016-07-08T11:15:46Z</time>
      </trkpt>
      <trkpt lat="45.58801" lon="6.57262">
        <ele>2386.55</ele>
        <time>2016-07-08T11:15:54Z</time>
      </trkpt>
      <trkpt lat="45.5882" lon="6.57263">
        <ele>2384.78</ele>
        <time>2016-07-08T11:16:07Z</time>
      </trkpt>
      <trkpt lat="45.5883" lon="6.57239">
        <ele>2378.77</ele>
        <time>2016-07-08T11:16:19Z</time>
      </trkpt>
      <trkpt lat="45.58836" lon="6.57214">
        <ele>2369.61</ele>
        <time>2016-07-08T11:16:35Z</time>
      </trkpt>
      <trkpt lat="45.5883" lon="6.57189">
        <ele>2365.74</ele>
        <time>2016-07-08T11:16:46Z</time>
      </trkpt>
      <trkpt lat="45.58846" lon="6.57173">
        <ele>2350.77</ele>
        <time>2016-07-08T11:17:18Z</time>
      </trkpt>
      <trkpt lat="45.58861" lon="6.57158">
        <ele>2341.58</ele>
        <time>2016-07-08T11:17:31Z</time>
      </trkpt>
      <trkpt lat="45.5887" lon="6.57134">
        <ele>2333.65</ele>
        <time>2016-07-08T11:17:49Z</time>
      </trkpt>
      <trkpt lat="45.58862" lon="6.5711">
        <ele>2328.54</ele>
        <time>2016-07-08T11:18:05Z</time>
      </trkpt>
      <trkpt lat="45.58873" lon="6.57089">
        <ele>2315.53</ele>
        <time>2016-07-08T11:18:28Z</time>
      </trkpt>
      <trkpt lat="45.58891" lon="6.5708">
        <ele>2311.37</ele>
        <time>2016-07-08T11:18:43Z</time>
      </trkpt>
      <trkpt lat="45.58901" lon="6.57058">
        <ele>2300.77</ele>
        <time>2016-07-08T11:19:07Z</time>
      </trkpt>
      <trkpt lat="45.58912" lon="6.57036">
        <ele>2297.49</ele>
        <time>2016-07-08T11:19:27Z</time>
      </trkpt>
      <trkpt lat="45.58927" lon="6.57017">
        <ele>2296.56</ele>
        <time>2016-07-08T11:19:34Z</time>
      </trkpt>
      <trkpt lat="45.58943" lon="6.57002">
        <ele>2287.59</ele>
        <time>2016-07-08T11:19:44Z</time>
      </trkpt>
      <trkpt lat="45.58962" lon="6.57004">
        <ele>2286.18</ele>
        <time>2016-07-08T11:19:51Z</time>
      </trkpt>
      <trkpt lat="45.5897" lon="6.56974">
        <ele>2281.76</ele>
        <time>2016-07-08T11:20:03Z</time>
      </trkpt>
      <trkpt lat="45.58972" lon="6.56948">
        <ele>2271.97</ele>
        <time>2016-07-08T11:20:18Z</time>
      </trkpt>
      <trkpt lat="45.58955" lon="6.56933">
        <ele>2258.22</ele>
        <time>2016-07-08T11:20:28Z</time>
      </trkpt>
      <trkpt lat="45.58937" lon="6.56925">
        <ele>2256.77</ele>
        <time>2016-07-08T11:20:36Z</time>
      </trkpt>
      <trkpt lat="45.58928" lon="6.56901">
        <ele>2248.5</ele>
        <time>2016-07-08T11:20:58Z</time>
      </trkpt>
      <trkpt lat="45.58916" lon="6.56881">
        <ele>2243.57</ele>
        <time>2016-07-08T11:21:07Z</time>
      </trkpt>
      <trkpt lat="45.58904" lon="6.5686">
        <ele>2232.97</ele>
        <time>2016-07-08T11:21:18Z</time>
      </trkpt>
      <trkpt lat="45.5889" lon="6.56842">
        <ele>2232.61</ele>
        <time>2016-07-08T11:21:27Z</time>
      </trkpt>
      <trkpt lat="45.58902" lon="6.5682">
        <ele>2221.95</ele>
        <time>2016-07-08T11:21:39Z</time>
      </trkpt>
      <trkpt lat="45.58899" lon="6.56794">
        <ele>2212.98</ele>
        <time>2016-07-08T11:21:46Z</time>
      </trkpt>
      <trkpt lat="45.58889" lon="6.56769">
        <ele>2209.53</ele>
        <time>2016-07-08T11:21:53Z</time>
      </trkpt>
      <trkpt lat="45.58877" lon="6.56748">
        <ele>2211.16</ele>
        <time>2016-07-08T11:21:58Z</time>
      </trkpt>
      <trkpt lat="45.58882" lon="6.5672">
        <ele>2203.83</ele>
        <time>2016-07-08T11:22:07Z</time>
      </trkpt>
      <trkpt lat="45.58869" lon="6.56702">
        <ele>2199.53</ele>
        <time>2016-07-08T11:22:30Z</time>
      </trkpt>
      <trkpt lat="45.58854" lon="6.56686">
        <ele>2195.54</ele>
        <time>2016-07-08T11:22:44Z</time>
      </trkpt>
      <trkpt lat="45.58836" lon="6.56677">
        <ele>2192.33</ele>
        <time>2016-07-08T11:22:56Z</time>
      </trkpt>
      <trkpt lat="45.58817" lon="6.56689">
        <ele>2187.54</ele>
        <time>2016-07-08T11:23:06Z</time>
      </trkpt>
      <trkpt lat="45.58801" lon="6.56677">
        <ele>2185.73</ele>
        <time>2016-07-08T11:23:19Z</time>
      </trkpt>
      <trkpt lat="45.58782" lon="6.56685">
        <ele>2182.57</ele>
        <time>2016-07-08T11:23:31Z</time>
      </trkpt>
      <trkpt lat="45.58764" lon="6.5668">
        <ele>2176.75</ele>
        <time>2016-07-08T11:23:44Z</time>
      </trkpt>
      <trkpt lat="45.58754" lon="6.56657">
        <ele>2182.48</ele>
        <time>2016-07-08T11:23:55Z</time>
      </trkpt>
      <trkpt lat="45.58741" lon="6.56639">
        <ele>2179.38</ele>
        <time>2016-07-08T11:24:09Z</time>
      </trkpt>
      <trkpt lat="45.58728" lon="6.5662">
        <ele>2176.57</ele>
        <time>2016-07-08T11:24:22Z</time>
      </trkpt>
      <trkpt lat="45.58715" lon="6.566">
        <ele>2172.57</ele>
        <time>2016-07-08T11:24:35Z</time>
      </trkpt>
      <trkpt lat="45.58698" lon="6.56586">
        <ele>2169.5</ele>
        <time>2016-07-08T11:24:49Z</time>
      </trkpt>
      <trkpt lat="45.58692" lon="6.5656">
        <ele>2164.57</ele>
        <time>2016-07-08T11:25:04Z</time>
      </trkpt>
      <trkpt lat="45.58685" lon="6.56533">
        <ele>2162.69</ele>
        <time>2016-07-08T11:25:18Z</time>
      </trkpt>
      <trkpt lat="45.58666" lon="6.56531">
        <ele>2157.77</ele>
        <time>2016-07-08T11:25:32Z</time>
      </trkpt>
      <trkpt lat="45.58648" lon="6.5652">
        <ele>2154.68</ele>
        <time>2016-07-08T11:25:47Z</time>
      </trkpt>
      <trkpt lat="45.58633" lon="6.56504">
        <ele>2149.77</ele>
        <time>2016-07-08T11:26:01Z</time>
      </trkpt>
      <trkpt lat="45.58618" lon="6.56488">
        <ele>2151.45</ele>
        <time>2016-07-08T11:26:45Z</time>
      </trkpt>
      <trkpt lat="45.58606" lon="6.56468">
        <ele>2150.3</ele>
        <time>2016-07-08T11:26:56Z</time>
      </trkpt>
      <trkpt lat="45.58588" lon="6.56462">
        <ele>2144.74</ele>
        <time>2016-07-08T11:27:09Z</time>
      </trkpt>
      <trkpt lat="45.58569" lon="6.56452">
        <ele>2143.61</ele>
        <time>2016-07-08T11:27:22Z</time>
      </trkpt>
      <trkpt lat="45.58552" lon="6.56442">
        <ele>2133.77</ele>
        <time>2016-07-08T11:27:37Z</time>
      </trkpt>
      <trkpt lat="45.58535" lon="6.56429">
        <ele>2131.57</ele>
        <time>2016-07-08T11:27:51Z</time>
      </trkpt>
      <trkpt lat="45.58517" lon="6.56419">
        <ele>2130.57</ele>
        <time>2016-07-08T11:28:04Z</time>
      </trkpt>
      <trkpt lat="45.58497" lon="6.56422">
        <ele>2131</ele>
        <time>2016-07-08T11:28:16Z</time>
      </trkpt>
      <trkpt lat="45.58479" lon="6.56415">
        <ele>2132.48</ele>
        <time>2016-07-08T11:28:29Z</time>
      </trkpt>
      <trkpt lat="45.58474" lon="6.56389">
        <ele>2132.72</ele>
        <time>2016-07-08T11:28:46Z</time>
      </trkpt>
      <trkpt lat="45.58473" lon="6.56363">
        <ele>2127.34</ele>
        <time>2016-07-08T11:28:59Z</time>
      </trkpt>
      <trkpt lat="45.5846" lon="6.56343">
        <ele>2119.5</ele>
        <time>2016-07-08T11:29:24Z</time>
      </trkpt>
      <trkpt lat="45.58442" lon="6.56335">
        <ele>2117.72</ele>
        <time>2016-07-08T11:29:38Z</time>
      </trkpt>
      <trkpt lat="45.58435" lon="6.5631">
        <ele>2115.53</ele>
        <time>2016-07-08T11:29:56Z</time>
      </trkpt>
      <trkpt lat="45.58425" lon="6.5629">
        <ele>2110.61</ele>
        <time>2016-07-08T11:30:19Z</time>
      </trkpt>
      <trkpt lat="45.58442" lon="6.56277">
        <ele>2102.57</ele>
        <time>2016-07-08T11:30:42Z</time>
      </trkpt>
      <trkpt lat="45.58451" lon="6.56254">
        <ele>2098.53</ele>
        <time>2016-07-08T11:31:02Z</time>
      </trkpt>
      <trkpt lat="45.58438" lon="6.56235">
        <ele>2091.76</ele>
        <time>2016-07-08T11:31:22Z</time>
      </trkpt>
      <trkpt lat="45.58427" lon="6.56212">
        <ele>2090.54</ele>
        <time>2016-07-08T11:31:39Z</time>
      </trkpt>
      <trkpt lat="45.58414" lon="6.56194">
        <ele>2091.32</ele>
        <time>2016-07-08T11:31:51Z</time>
      </trkpt>
      <trkpt lat="45.584" lon="6.56175">
        <ele>2089.54</ele>
        <time>2016-07-08T11:32:04Z</time>
      </trkpt>
      <trkpt lat="45.58385" lon="6.5616">
        <ele>2085.69</ele>
        <time>2016-07-08T11:32:16Z</time>
      </trkpt>
      <trkpt lat="45.58371" lon="6.56144">
        <ele>2083.69</ele>
        <time>2016-07-08T11:32:31Z</time>
      </trkpt>
      <trkpt lat="45.58354" lon="6.56131">
        <ele>2085.72</ele>
        <time>2016-07-08T11:32:43Z</time>
      </trkpt>
      <trkpt lat="45.58342" lon="6.56112">
        <ele>2084.53</ele>
        <time>2016-07-08T11:32:55Z</time>
      </trkpt>
      <trkpt lat="45.58326" lon="6.561">
        <ele>2086.53</ele>
        <time>2016-07-08T11:33:07Z</time>
      </trkpt>
      <trkpt lat="45.58307" lon="6.56095">
        <ele>2081.37</ele>
        <time>2016-07-08T11:33:21Z</time>
      </trkpt>
      <trkpt lat="45.58293" lon="6.56079">
        <ele>2081.53</ele>
        <time>2016-07-08T11:33:55Z</time>
      </trkpt>
      <trkpt lat="45.58279" lon="6.56059">
        <ele>2082.53</ele>
        <time>2016-07-08T11:34:11Z</time>
      </trkpt>
      <trkpt lat="45.58265" lon="6.56042">
        <ele>2077.75</ele>
        <time>2016-07-08T11:34:27Z</time>
      </trkpt>
      <trkpt lat="45.58251" lon="6.56024">
        <ele>2077.66</ele>
        <time>2016-07-08T11:34:35Z</time>
      </trkpt>
      <trkpt lat="45.58236" lon="6.56009">
        <ele>2074.59</ele>
        <time>2016-07-08T11:34:42Z</time>
      </trkpt>
      <trkpt lat="45.58219" lon="6.55997">
        <ele>2071.54</ele>
        <time>2016-07-08T11:34:50Z</time>
      </trkpt>
      <trkpt lat="45.58199" lon="6.55986">
        <ele>2067.53</ele>
        <time>2016-07-08T11:34:59Z</time>
      </trkpt>
      <trkpt lat="45.58181" lon="6.55975">
        <ele>2063.53</ele>
        <time>2016-07-08T11:35:07Z</time>
      </trkpt>
      <trkpt lat="45.58161" lon="6.55972">
        <ele>2059.54</ele>
        <time>2016-07-08T11:35:14Z</time>
      </trkpt>
      <trkpt lat="45.58141" lon="6.55971">
        <ele>2060.17</ele>
        <time>2016-07-08T11:35:21Z</time>
      </trkpt>
      <trkpt lat="45.58123" lon="6.55963">
        <ele>2059.73</ele>
        <time>2016-07-08T11:35:29Z</time>
      </trkpt>
      <trkpt lat="45.58104" lon="6.5596">
        <ele>2054.57</ele>
        <time>2016-07-08T11:35:40Z</time>
      </trkpt>
      <trkpt lat="45.58086" lon="6.55957">
        <ele>2049.53</ele>
        <time>2016-07-08T11:35:54Z</time>
      </trkpt>
      <trkpt lat="45.58071" lon="6.55941">
        <ele>2041.57</ele>
        <time>2016-07-08T11:36:05Z</time>
      </trkpt>
      <trkpt lat="45.58058" lon="6.55922">
        <ele>2037.72</ele>
        <time>2016-07-08T11:36:20Z</time>
      </trkpt>
      <trkpt lat="45.58048" lon="6.55899">
        <ele>2031.58</ele>
        <time>2016-07-08T11:36:33Z</time>
      </trkpt>
      <trkpt lat="45.58034" lon="6.5588">
        <ele>2028.73</ele>
        <time>2016-07-08T11:36:46Z</time>
      </trkpt>
      <trkpt lat="45.58022" lon="6.5586">
        <ele>2024.29</ele>
        <time>2016-07-08T11:37:00Z</time>
      </trkpt>
      <trkpt lat="45.58008" lon="6.55844">
        <ele>2019.39</ele>
        <time>2016-07-08T11:37:14Z</time>
      </trkpt>
      <trkpt lat="45.57997" lon="6.55823">
        <ele>2015.76</ele>
        <time>2016-07-08T11:37:28Z</time>
      </trkpt>
      <trkpt lat="45.57988" lon="6.558">
        <ele>2012.53</ele>
        <time>2016-07-08T11:37:42Z</time>
      </trkpt>
      <trkpt lat="45.57977" lon="6.55778">
        <ele>2014.76</ele>
        <time>2016-07-08T11:37:55Z</time>
      </trkpt>
      <trkpt lat="45.57961" lon="6.55758">
        <ele>2006.15</ele>
        <time>2016-07-08T11:38:30Z</time>
      </trkpt>
      <trkpt lat="45.57945" lon="6.55743">
        <ele>2005.71</ele>
        <time>2016-07-08T11:38:41Z</time>
      </trkpt>
      <trkpt lat="45.57925" lon="6.5574">
        <ele>2006.49</ele>
        <time>2016-07-08T11:39:23Z</time>
      </trkpt>
      <trkpt lat="45.57915" lon="6.55764">
        <ele>2001.29</ele>
        <time>2016-07-08T11:39:38Z</time>
      </trkpt>
      <trkpt lat="45.57905" lon="6.55785">
        <ele>2002.32</ele>
        <time>2016-07-08T11:39:51Z</time>
      </trkpt>
      <trkpt lat="45.57887" lon="6.55795">
        <ele>1999.53</ele>
        <time>2016-07-08T11:40:10Z</time>
      </trkpt>
      <trkpt lat="45.57869" lon="6.55803">
        <ele>1996.73</ele>
        <time>2016-07-08T11:40:26Z</time>
      </trkpt>
      <trkpt lat="45.57849" lon="6.55807">
        <ele>1997.53</ele>
        <time>2016-07-08T11:40:34Z</time>
      </trkpt>
      <trkpt lat="45.5783" lon="6.55811">
        <ele>1998.33</ele>
        <time>2016-07-08T11:40:54Z</time>
      </trkpt>
      <trkpt lat="45.57821" lon="6.55786">
        <ele>1992.53</ele>
        <time>2016-07-08T11:41:07Z</time>
      </trkpt>
      <trkpt lat="45.57808" lon="6.55768">
        <ele>1994.53</ele>
        <time>2016-07-08T11:41:21Z</time>
      </trkpt>
      <trkpt lat="45.57801" lon="6.55741">
        <ele>1987.36</ele>
        <time>2016-07-08T11:41:42Z</time>
      </trkpt>
      <trkpt lat="45.57785" lon="6.55721">
        <ele>1989.32</ele>
        <time>2016-07-08T11:42:00Z</time>
      </trkpt>
      <trkpt lat="45.57772" lon="6.55701">
        <ele>1991.72</ele>
        <time>2016-07-08T11:42:13Z</time>
      </trkpt>
      <trkpt lat="45.57761" lon="6.55679">
        <ele>1987.89</ele>
        <time>2016-07-08T11:42:26Z</time>
      </trkpt>
      <trkpt lat="45.57756" lon="6.55654">
        <ele>1986.53</ele>
        <time>2016-07-08T11:42:35Z</time>
      </trkpt>
      <trkpt lat="45.57743" lon="6.5563">
        <ele>1979.54</ele>
        <time>2016-07-08T11:43:04Z</time>
      </trkpt>
      <trkpt lat="45.57727" lon="6.55615">
        <ele>1979.56</ele>
        <time>2016-07-08T11:43:15Z</time>
      </trkpt>
      <trkpt lat="45.57711" lon="6.55602">
        <ele>1972.08</ele>
        <time>2016-07-08T11:43:36Z</time>
      </trkpt>
      <trkpt lat="45.57722" lon="6.55581">
        <ele>1967.42</ele>
        <time>2016-07-08T11:43:47Z</time>
      </trkpt>
      <trkpt lat="45.57705" lon="6.55566">
        <ele>1971.21</ele>
        <time>2016-07-08T11:44:00Z</time>
      </trkpt>
      <trkpt lat="45.57691" lon="6.55541">
        <ele>1965.53</ele>
        <time>2016-07-08T11:45:04Z</time>
      </trkpt>
      <trkpt lat="45.57686" lon="6.55515">
        <ele>1969.92</ele>
        <time>2016-07-08T11:45:27Z</time>
      </trkpt>
      <trkpt lat="45.57682" lon="6.55487">
        <ele>1964.56</ele>
        <time>2016-07-08T11:45:46Z</time>
      </trkpt>
      <trkpt lat="45.57669" lon="6.55468">
        <ele>1961.54</ele>
        <time>2016-07-08T11:46:02Z</time>
      </trkpt>
      <trkpt lat="45.57671" lon="6.55442">
        <ele>1956.5</ele>
        <time>2016-07-08T11:46:17Z</time>
      </trkpt>
      <trkpt lat="45.57666" lon="6.55417">
        <ele>1957.52</ele>
        <time>2016-07-08T11:46:32Z</time>
      </trkpt>
      <trkpt lat="45.57653" lon="6.55399">
        <ele>1952.73</ele>
        <time>2016-07-08T11:47:13Z</time>
      </trkpt>
      <trkpt lat="45.57642" lon="6.55378">
        <ele>1943.8</ele>
        <time>2016-07-08T11:47:26Z</time>
      </trkpt>
      <trkpt lat="45.57642" lon="6.55352">
        <ele>1940.75</ele>
        <time>2016-07-08T11:47:56Z</time>
      </trkpt>
      <trkpt lat="45.57644" lon="6.55326">
        <ele>1934.78</ele>
        <time>2016-07-08T11:48:15Z</time>
      </trkpt>
      <trkpt lat="45.57645" lon="6.55299">
        <ele>1931.53</ele>
        <time>2016-07-08T11:48:30Z</time>
      </trkpt>
      <trkpt lat="45.57645" lon="6.5527">
        <ele>1932.37</ele>
        <time>2016-07-08T11:48:47Z</time>
      </trkpt>
      <trkpt lat="45.57645" lon="6.55243">
        <ele>1930.52</ele>
        <time>2016-07-08T11:49:02Z</time>
      </trkpt>
      <trkpt lat="45.57635" lon="6.5522">
        <ele>1922.37</ele>
        <time>2016-07-08T11:49:32Z</time>
      </trkpt>
      <trkpt lat="45.57622" lon="6.55201">
        <ele>1746.61</ele>
        <time>2016-07-08T11:49:47Z</time>
      </trkpt>
      <trkpt lat="45.57604" lon="6.55206">
        <ele>1901.93</ele>
        <time>2016-07-08T11:50:09Z</time>
      </trkpt>
      <trkpt lat="45.57594" lon="6.55184">
        <ele>1906.5</ele>
        <time>2016-07-08T11:50:45Z</time>
      </trkpt>
      <trkpt lat="45.576" lon="6.55158">
        <ele>1901.54</ele>
        <time>2016-07-08T11:51:01Z</time>
      </trkpt>
      <trkpt lat="45.57593" lon="6.55134">
        <ele>1901.74</ele>
        <time>2016-07-08T11:51:18Z</time>
      </trkpt>
      <trkpt lat="45.57576" lon="6.55126">
        <ele>1846.94</ele>
        <time>2016-07-08T11:51:33Z</time>
      </trkpt>
      <trkpt lat="45.57564" lon="6.55105">
        <ele>1885.57</ele>
        <time>2016-07-08T11:51:49Z</time>
      </trkpt>
      <trkpt lat="45.57552" lon="6.55084">
        <ele>1889.42</ele>
        <time>2016-07-08T11:52:04Z</time>
      </trkpt>
      <trkpt lat="45.5754" lon="6.55064">
        <ele>1886.73</ele>
        <time>2016-07-08T11:52:19Z</time>
      </trkpt>
      <trkpt lat="45.57525" lon="6.55048">
        <ele>1882.69</ele>
        <time>2016-07-08T11:52:35Z</time>
      </trkpt>
      <trkpt lat="45.57515" lon="6.55027">
        <ele>1878.53</ele>
        <time>2016-07-08T11:52:53Z</time>
      </trkpt>
      <trkpt lat="45.57504" lon="6.55004">
        <ele>1878.45</ele>
        <time>2016-07-08T11:53:13Z</time>
      </trkpt>
      <trkpt lat="45.57497" lon="6.54979">
        <ele>1867.78</ele>
        <time>2016-07-08T11:53:31Z</time>
      </trkpt>
      <trkpt lat="45.57489" lon="6.54955">
        <ele>1863.74</ele>
        <time>2016-07-08T11:53:47Z</time>
      </trkpt>
      <trkpt lat="45.57483" lon="6.5493">
        <ele>1860.69</ele>
        <time>2016-07-08T11:54:01Z</time>
      </trkpt>
      <trkpt lat="45.57472" lon="6.54908">
        <ele>1858.32</ele>
        <time>2016-07-08T11:54:15Z</time>
      </trkpt>
      <trkpt lat="45.57463" lon="6.54885">
        <ele>1853.77</ele>
        <time>2016-07-08T11:54:31Z</time>
      </trkpt>
      <trkpt lat="45.5745" lon="6.54863">
        <ele>1845.81</ele>
        <time>2016-07-08T11:54:47Z</time>
      </trkpt>
      <trkpt lat="45.57436" lon="6.54847">
        <ele>1841.55</ele>
        <time>2016-07-08T11:55:02Z</time>
      </trkpt>
      <trkpt lat="45.5742" lon="6.54834">
        <ele>1838.53</ele>
        <time>2016-07-08T11:55:17Z</time>
      </trkpt>
      <trkpt lat="45.57436" lon="6.54823">
        <ele>1831.73</ele>
        <time>2016-07-08T11:55:32Z</time>
      </trkpt>
      <trkpt lat="45.57445" lon="6.54799">
        <ele>1827.74</ele>
        <time>2016-07-08T11:55:49Z</time>
      </trkpt>
      <trkpt lat="45.57445" lon="6.54772">
        <ele>1826.6</ele>
        <time>2016-07-08T11:56:19Z</time>
      </trkpt>
      <trkpt lat="45.57441" lon="6.54746">
        <ele>1815.57</ele>
        <time>2016-07-08T11:56:42Z</time>
      </trkpt>
      <trkpt lat="45.57432" lon="6.54723">
        <ele>1814.76</ele>
        <time>2016-07-08T11:56:54Z</time>
      </trkpt>
      <trkpt lat="45.57422" lon="6.54701">
        <ele>1810.54</ele>
        <time>2016-07-08T11:57:08Z</time>
      </trkpt>
      <trkpt lat="45.57406" lon="6.54685">
        <ele>1809.56</ele>
        <time>2016-07-08T11:57:23Z</time>
      </trkpt>
      <trkpt lat="45.57394" lon="6.54662">
        <ele>1808.57</ele>
        <time>2016-07-08T11:57:35Z</time>
      </trkpt>
      <trkpt lat="45.57392" lon="6.54636">
        <ele>1803.33</ele>
        <time>2016-07-08T11:57:58Z</time>
      </trkpt>
      <trkpt lat="45.57385" lon="6.5461">
        <ele>1801.49</ele>
        <time>2016-07-08T11:58:13Z</time>
      </trkpt>
      <trkpt lat="45.57371" lon="6.54591">
        <ele>1802.52</ele>
        <time>2016-07-08T11:58:36Z</time>
      </trkpt>
      <trkpt lat="45.57352" lon="6.54586">
        <ele>1799.54</ele>
        <time>2016-07-08T11:58:51Z</time>
      </trkpt>
      <trkpt lat="45.57333" lon="6.54576">
        <ele>1794.74</ele>
        <time>2016-07-08T11:59:04Z</time>
      </trkpt>
      <trkpt lat="45.57317" lon="6.54565">
        <ele>1792.52</ele>
        <time>2016-07-08T11:59:17Z</time>
      </trkpt>
      <trkpt lat="45.57297" lon="6.5456">
        <ele>1791.37</ele>
        <time>2016-07-08T11:59:34Z</time>
      </trkpt>
      <trkpt lat="45.57278" lon="6.54557">
        <ele>1788.73</ele>
        <time>2016-07-08T11:59:46Z</time>
      </trkpt>
      <trkpt lat="45.5726" lon="6.54554">
        <ele>1789.6</ele>
        <time>2016-07-08T12:00:01Z</time>
      </trkpt>
      <trkpt lat="45.57245" lon="6.54534">
        <ele>1790.53</ele>
        <time>2016-07-08T12:00:18Z</time>
      </trkpt>
      <trkpt lat="45.57232" lon="6.54516">
        <ele>1787.73</ele>
        <time>2016-07-08T12:00:30Z</time>
      </trkpt>
      <trkpt lat="45.57217" lon="6.54501">
        <ele>1789.34</ele>
        <time>2016-07-08T12:00:44Z</time>
      </trkpt>
      <trkpt lat="45.57202" lon="6.54481">
        <ele>1788.52</ele>
        <time>2016-07-08T12:00:59Z</time>
      </trkpt>
      <trkpt lat="45.57189" lon="6.54459">
        <ele>1785.57</ele>
        <time>2016-07-08T12:01:14Z</time>
      </trkpt>
      <trkpt lat="45.57176" lon="6.54441">
        <ele>1781.74</ele>
        <time>2016-07-08T12:01:31Z</time>
      </trkpt>
      <trkpt lat="45.57161" lon="6.54424">
        <ele>1783.54</ele>
        <time>2016-07-08T12:01:45Z</time>
      </trkpt>
      <trkpt lat="45.57144" lon="6.54413">
        <ele>1779.54</ele>
        <time>2016-07-08T12:01:59Z</time>
      </trkpt>
      <trkpt lat="45.57129" lon="6.54395">
        <ele>1777.18</ele>
        <time>2016-07-08T12:02:16Z</time>
      </trkpt>
      <trkpt lat="45.57114" lon="6.5438">
        <ele>1771.33</ele>
        <time>2016-07-08T12:02:33Z</time>
      </trkpt>
      <trkpt lat="45.57104" lon="6.54376">
        <ele>1770.53</ele>
        <time>2016-07-08T12:03:18Z</time>
      </trkpt>
      <trkpt lat="45.57086" lon="6.54366">
        <ele>1766.85</ele>
        <time>2016-07-08T12:03:51Z</time>
      </trkpt>
      <trkpt lat="45.57073" lon="6.54348">
        <ele>1754.48</ele>
        <time>2016-07-08T12:04:39Z</time>
      </trkpt>
      <trkpt lat="45.57058" lon="6.54331">
        <ele>1749.52</ele>
        <time>2016-07-08T12:04:57Z</time>
      </trkpt>
      <trkpt lat="45.57042" lon="6.54318">
        <ele>1738.57</ele>
        <time>2016-07-08T12:05:23Z</time>
      </trkpt>
      <trkpt lat="45.57027" lon="6.54304">
        <ele>1737.74</ele>
        <time>2016-07-08T12:05:40Z</time>
      </trkpt>
      <trkpt lat="45.57015" lon="6.54283">
        <ele>1725.62</ele>
        <time>2016-07-08T12:06:00Z</time>
      </trkpt>
      <trkpt lat="45.56999" lon="6.54267">
        <ele>1721.37</ele>
        <time>2016-07-08T12:06:20Z</time>
      </trkpt>
      <trkpt lat="45.56981" lon="6.54263">
        <ele>1712.73</ele>
        <time>2016-07-08T12:06:39Z</time>
      </trkpt>
      <trkpt lat="45.56961" lon="6.54269">
        <ele>1708.32</ele>
        <time>2016-07-08T12:07:01Z</time>
      </trkpt>
      <trkpt lat="45.56943" lon="6.54264">
        <ele>1707.13</ele>
        <time>2016-07-08T12:07:16Z</time>
      </trkpt>
      <trkpt lat="45.56926" lon="6.54252">
        <ele>1699.91</ele>
        <time>2016-07-08T12:07:33Z</time>
      </trkpt>
      <trkpt lat="45.56909" lon="6.5424">
        <ele>1700.36</ele>
        <time>2016-07-08T12:07:50Z</time>
      </trkpt>
      <trkpt lat="45.56893" lon="6.54227">
        <ele>1693.34</ele>
        <time>2016-07-08T12:08:07Z</time>
      </trkpt>
      <trkpt lat="45.56875" lon="6.54218">
        <ele>1695.36</ele>
        <time>2016-07-08T12:08:23Z</time>
      </trkpt>
      <trkpt lat="45.5687" lon="6.54189">
        <ele>1683.79</ele>
        <time>2016-07-08T12:08:42Z</time>
      </trkpt>
      <trkpt lat="45.56861" lon="6.54165">
        <ele>1682.27</ele>
        <time>2016-07-08T12:08:59Z</time>
      </trkpt>
      <trkpt lat="45.56861" lon="6.54137">
        <ele>1683.3</ele>
        <time>2016-07-08T12:09:19Z</time>
      </trkpt>
      <trkpt lat="45.56867" lon="6.54112">
        <ele>1679.32</ele>
        <time>2016-07-08T12:09:58Z</time>
      </trkpt>
      <trkpt lat="45.56878" lon="6.5409">
        <ele>1674.96</ele>
        <time>2016-07-08T12:10:13Z</time>
      </trkpt>
      <trkpt lat="45.56892" lon="6.54073">
        <ele>1668.33</ele>
        <time>2016-07-08T12:10:59Z</time>
      </trkpt>
      <trkpt lat="45.56906" lon="6.54055">
        <ele>1666.57</ele>
        <time>2016-07-08T12:11:11Z</time>
      </trkpt>
      <trkpt lat="45.56895" lon="6.54076">
        <ele>1670.51</ele>
        <time>2016-07-08T12:11:54Z</time>
      </trkpt>
      <trkpt lat="45.5688" lon="6.54093">
        <ele>1668.15</ele>
        <time>2016-07-08T12:12:09Z</time>
      </trkpt>
      <trkpt lat="45.56867" lon="6.54112">
        <ele>1669.67</ele>
        <time>2016-07-08T12:12:24Z</time>
      </trkpt>
      <trkpt lat="45.56852" lon="6.54127">
        <ele>1670.57</ele>
        <time>2016-07-08T12:12:41Z</time>
      </trkpt>
      <trkpt lat="45.56833" lon="6.54129">
        <ele>1665.53</ele>
        <time>2016-07-08T12:12:57Z</time>
      </trkpt>
      <trkpt lat="45.56809" lon="6.54137">
        <ele>1668.49</ele>
        <time>2016-07-08T12:13:35Z</time>
      </trkpt>
      <trkpt lat="45.56798" lon="6.54115">
        <ele>1675.52</ele>
        <time>2016-07-08T12:13:53Z</time>
      </trkpt>
      <trkpt lat="45.5678" lon="6.54119">
        <ele>1660.81</ele>
        <time>2016-07-08T12:14:29Z</time>
      </trkpt>
      <trkpt lat="45.56763" lon="6.54128">
        <ele>1655.78</ele>
        <time>2016-07-08T12:14:53Z</time>
      </trkpt>
      <trkpt lat="45.56747" lon="6.54112">
        <ele>1651.89</ele>
        <time>2016-07-08T12:15:14Z</time>
      </trkpt>
      <trkpt lat="45.56739" lon="6.54089">
        <ele>1642.31</ele>
        <time>2016-07-08T12:15:33Z</time>
      </trkpt>
      <trkpt lat="45.56729" lon="6.54065">
        <ele>1644.53</ele>
        <time>2016-07-08T12:15:48Z</time>
      </trkpt>
      <trkpt lat="45.56715" lon="6.54049">
        <ele>1632.71</ele>
        <time>2016-07-08T12:16:04Z</time>
      </trkpt>
      <trkpt lat="45.56705" lon="6.54026">
        <ele>1628.78</ele>
        <time>2016-07-08T12:16:18Z</time>
      </trkpt>
      <trkpt lat="45.56695" lon="6.54003">
        <ele>1635.41</ele>
        <time>2016-07-08T12:16:37Z</time>
      </trkpt>
      <trkpt lat="45.56683" lon="6.53982">
        <ele>1629.77</ele>
        <time>2016-07-08T12:16:50Z</time>
      </trkpt>
      <trkpt lat="45.56676" lon="6.53956">
        <ele>1625.99</ele>
        <time>2016-07-08T12:17:07Z</time>
      </trkpt>
      <trkpt lat="45.56663" lon="6.53936">
        <ele>1621.36</ele>
        <time>2016-07-08T12:17:23Z</time>
      </trkpt>
      <trkpt lat="45.56647" lon="6.53925">
        <ele>1918.49</ele>
        <time>2016-07-08T12:17:38Z</time>
      </trkpt>
      <trkpt lat="45.56632" lon="6.53911">
        <ele>1640.86</ele>
        <time>2016-07-08T12:17:51Z</time>
      </trkpt>
      <trkpt lat="45.56612" lon="6.53909">
        <ele>1639.9</ele>
        <time>2016-07-08T12:18:07Z</time>
      </trkpt>
      <trkpt lat="45.56605" lon="6.53885">
        <ele>1626.7</ele>
        <time>2016-07-08T12:18:28Z</time>
      </trkpt>
      <trkpt lat="45.56589" lon="6.53874">
        <ele>1613.57</ele>
        <time>2016-07-08T12:18:45Z</time>
      </trkpt>
      <trkpt lat="45.56572" lon="6.53863">
        <ele>1602.7</ele>
        <time>2016-07-08T12:19:15Z</time>
      </trkpt>
      <trkpt lat="45.56554" lon="6.53866">
        <ele>1598.65</ele>
        <time>2016-07-08T12:19:38Z</time>
      </trkpt>
      <trkpt lat="45.56538" lon="6.53853">
        <ele>1598.34</ele>
        <time>2016-07-08T12:19:53Z</time>
      </trkpt>
      <trkpt lat="45.5652" lon="6.53858">
        <ele>1598.76</ele>
        <time>2016-07-08T12:20:13Z</time>
      </trkpt>
      <trkpt lat="45.56507" lon="6.53836">
        <ele>1599.57</ele>
        <time>2016-07-08T12:20:31Z</time>
      </trkpt>
      <trkpt lat="45.56495" lon="6.53816">
        <ele>1590.71</ele>
        <time>2016-07-08T12:20:47Z</time>
      </trkpt>
      <trkpt lat="45.56495" lon="6.5379">
        <ele>1585.33</ele>
        <time>2016-07-08T12:21:08Z</time>
      </trkpt>
      <trkpt lat="45.56494" lon="6.53761">
        <ele>1577.98</ele>
        <time>2016-07-08T12:21:25Z</time>
      </trkpt>
      <trkpt lat="45.56487" lon="6.53735">
        <ele>1568.77</ele>
        <time>2016-07-08T12:21:42Z</time>
      </trkpt>
      <trkpt lat="45.56476" lon="6.53714">
        <ele>1565.29</ele>
        <time>2016-07-08T12:22:09Z</time>
      </trkpt>
      <trkpt lat="45.56466" lon="6.53692">
        <ele>1555.54</ele>
        <time>2016-07-08T12:22:26Z</time>
      </trkpt>
      <trkpt lat="45.56462" lon="6.53666">
        <ele>1544.99</ele>
        <time>2016-07-08T12:22:38Z</time>
      </trkpt>
      <trkpt lat="45.56465" lon="6.53641">
        <ele>1552.54</ele>
        <time>2016-07-08T12:22:56Z</time>
      </trkpt>
      <trkpt lat="45.56463" lon="6.53613">
        <ele>1540.93</ele>
        <time>2016-07-08T12:23:10Z</time>
      </trkpt>
      <trkpt lat="45.56466" lon="6.53585">
        <ele>1542.9</ele>
        <time>2016-07-08T12:23:47Z</time>
      </trkpt>
      <trkpt lat="45.56468" lon="6.53558">
        <ele>1566.13</ele>
        <time>2016-07-08T12:24:04Z</time>
      </trkpt>
      <trkpt lat="45.5646" lon="6.53534">
        <ele>1531.37</ele>
        <time>2016-07-08T12:24:25Z</time>
      </trkpt>
      <trkpt lat="45.56455" lon="6.53509">
        <ele>1532.57</ele>
        <time>2016-07-08T12:24:42Z</time>
      </trkpt>
      <trkpt lat="45.56442" lon="6.53491">
        <ele>1530.99</ele>
        <time>2016-07-08T12:25:03Z</time>
      </trkpt>
      <trkpt lat="45.56427" lon="6.53474">
        <ele>1521.71</ele>
        <time>2016-07-08T12:25:14Z</time>
      </trkpt>
      <trkpt lat="45.56419" lon="6.53449">
        <ele>1519.94</ele>
        <time>2016-07-08T12:25:26Z</time>
      </trkpt>
      <trkpt lat="45.56404" lon="6.53432">
        <ele>1512.91</ele>
        <time>2016-07-08T12:25:50Z</time>
      </trkpt>
      <trkpt lat="45.56401" lon="6.53407">
        <ele>1499.57</ele>
        <time>2016-07-08T12:26:10Z</time>
      </trkpt>
      <trkpt lat="45.56398" lon="6.5338">
        <ele>1507.53</ele>
        <time>2016-07-08T12:26:26Z</time>
      </trkpt>
      <trkpt lat="45.56381" lon="6.53368">
        <ele>1500.51</ele>
        <time>2016-07-08T12:26:49Z</time>
      </trkpt>
      <trkpt lat="45.56391" lon="6.53344">
        <ele>1499.77</ele>
        <time>2016-07-08T12:27:33Z</time>
      </trkpt>
      <trkpt lat="45.56391" lon="6.53316">
        <ele>1502.24</ele>
        <time>2016-07-08T12:27:42Z</time>
      </trkpt>
      <trkpt lat="45.56381" lon="6.53292">
        <ele>1498.74</ele>
        <time>2016-07-08T12:27:47Z</time>
      </trkpt>
      <trkpt lat="45.56383" lon="6.53266">
        <ele>1493.5</ele>
        <time>2016-07-08T12:28:08Z</time>
      </trkpt>
      <trkpt lat="45.56374" lon="6.53241">
        <ele>1497.64</ele>
        <time>2016-07-08T12:28:24Z</time>
      </trkpt>
      <trkpt lat="45.56368" lon="6.53216">
        <ele>1490.69</ele>
        <time>2016-07-08T12:28:42Z</time>
      </trkpt>
      <trkpt lat="45.56351" lon="6.53199">
        <ele>1481.04</ele>
        <time>2016-07-08T12:28:49Z</time>
      </trkpt>
      <trkpt lat="45.56351" lon="6.53171">
        <ele>1470.68</ele>
        <time>2016-07-08T12:29:03Z</time>
      </trkpt>
      <trkpt lat="45.56336" lon="6.53156">
        <ele>1463.92</ele>
        <time>2016-07-08T12:29:14Z</time>
      </trkpt>
      <trkpt lat="45.56326" lon="6.53132">
        <ele>1464.5</ele>
        <time>2016-07-08T12:29:32Z</time>
      </trkpt>
      <trkpt lat="45.56312" lon="6.53113">
        <ele>1460.5</ele>
        <time>2016-07-08T12:29:46Z</time>
      </trkpt>
      <trkpt lat="45.56295" lon="6.53103">
        <ele>1456.33</ele>
        <time>2016-07-08T12:30:01Z</time>
      </trkpt>
      <trkpt lat="45.56279" lon="6.5309">
        <ele>1454.56</ele>
        <time>2016-07-08T12:30:13Z</time>
      </trkpt>
      <trkpt lat="45.56266" lon="6.53071">
        <ele>1451.59</ele>
        <time>2016-07-08T12:30:24Z</time>
      </trkpt>
      <trkpt lat="45.56252" lon="6.5305">
        <ele>1445.13</ele>
        <time>2016-07-08T12:30:45Z</time>
      </trkpt>
      <trkpt lat="45.56239" lon="6.53028">
        <ele>1440.81</ele>
        <time>2016-07-08T12:30:53Z</time>
      </trkpt>
      <trkpt lat="45.56231" lon="6.53003">
        <ele>1438.81</ele>
        <time>2016-07-08T12:31:31Z</time>
      </trkpt>
      <trkpt lat="45.56215" lon="6.52988">
        <ele>1431.78</ele>
        <time>2016-07-08T12:31:38Z</time>
      </trkpt>
      <trkpt lat="45.56204" lon="6.52965">
        <ele>1431.65</ele>
        <time>2016-07-08T12:32:20Z</time>
      </trkpt>
      <trkpt lat="45.56193" lon="6.52944">
        <ele>1427.53</ele>
        <time>2016-07-08T12:32:44Z</time>
      </trkpt>
      <trkpt lat="45.56183" lon="6.52921">
        <ele>1428.73</ele>
        <time>2016-07-08T12:32:50Z</time>
      </trkpt>
      <trkpt lat="45.56175" lon="6.52895">
        <ele>1417.6</ele>
        <time>2016-07-08T12:33:08Z</time>
      </trkpt>
      <trkpt lat="45.56162" lon="6.52877">
        <ele>1413.54</ele>
        <time>2016-07-08T12:33:35Z</time>
      </trkpt>
      <trkpt lat="45.56144" lon="6.52865">
        <ele>1410.66</ele>
        <time>2016-07-08T12:33:47Z</time>
      </trkpt>
      <trkpt lat="45.56131" lon="6.5284">
        <ele>1405.5</ele>
        <time>2016-07-08T12:34:01Z</time>
      </trkpt>
      <trkpt lat="45.56117" lon="6.52821">
        <ele>1399.82</ele>
        <time>2016-07-08T12:34:18Z</time>
      </trkpt>
      <trkpt lat="45.56107" lon="6.52798">
        <ele>1390.93</ele>
        <time>2016-07-08T12:34:38Z</time>
      </trkpt>
      <trkpt lat="45.56099" lon="6.52774">
        <ele>1386.77</ele>
        <time>2016-07-08T12:34:56Z</time>
      </trkpt>
      <trkpt lat="45.56085" lon="6.52755">
        <ele>1383.77</ele>
        <time>2016-07-08T12:35:07Z</time>
      </trkpt>
      <trkpt lat="45.56072" lon="6.52733">
        <ele>1377.91</ele>
        <time>2016-07-08T12:35:27Z</time>
      </trkpt>
      <trkpt lat="45.56059" lon="6.52713">
        <ele>1378.15</ele>
        <time>2016-07-08T12:35:45Z</time>
      </trkpt>
      <trkpt lat="45.56047" lon="6.52694">
        <ele>1376.54</ele>
        <time>2016-07-08T12:36:01Z</time>
      </trkpt>
      <trkpt lat="45.56033" lon="6.52676">
        <ele>1370.54</ele>
        <time>2016-07-08T12:36:13Z</time>
      </trkpt>
      <trkpt lat="45.5602" lon="6.52657">
        <ele>1371.49</ele>
        <time>2016-07-08T12:36:30Z</time>
      </trkpt>
      <trkpt lat="45.56004" lon="6.52642">
        <ele>1364.94</ele>
        <time>2016-07-08T12:36:47Z</time>
      </trkpt>
      <trkpt lat="45.55991" lon="6.52623">
        <ele>1361.74</ele>
        <time>2016-07-08T12:37:10Z</time>
      </trkpt>
      <trkpt lat="45.55981" lon="6.526">
        <ele>1355.76</ele>
        <time>2016-07-08T12:37:34Z</time>
      </trkpt>
      <trkpt lat="45.55967" lon="6.52583">
        <ele>1348.34</ele>
        <time>2016-07-08T12:37:53Z</time>
      </trkpt>
      <trkpt lat="45.55961" lon="6.52559">
        <ele>1343.74</ele>
        <time>2016-07-08T12:38:09Z</time>
      </trkpt>
      <trkpt lat="45.55949" lon="6.52539">
        <ele>1336.73</ele>
        <time>2016-07-08T12:38:26Z</time>
      </trkpt>
      <trkpt lat="45.55936" lon="6.52521">
        <ele>1328.69</ele>
        <time>2016-07-08T12:38:46Z</time>
      </trkpt>
      <trkpt lat="45.55927" lon="6.52496">
        <ele>1331.41</ele>
        <time>2016-07-08T12:39:08Z</time>
      </trkpt>
      <trkpt lat="45.55922" lon="6.52471">
        <ele>1329.17</ele>
        <time>2016-07-08T12:39:22Z</time>
      </trkpt>
      <trkpt lat="45.55917" lon="6.52444">
        <ele>1322.7</ele>
        <time>2016-07-08T12:39:37Z</time>
      </trkpt>
      <trkpt lat="45.55916" lon="6.52416">
        <ele>1318.58</ele>
        <time>2016-07-08T12:39:54Z</time>
      </trkpt>
      <trkpt lat="45.55909" lon="6.52392">
        <ele>1318.53</ele>
        <time>2016-07-08T12:40:22Z</time>
      </trkpt>
      <trkpt lat="45.55898" lon="6.52371">
        <ele>1321.77</ele>
        <time>2016-07-08T12:40:36Z</time>
      </trkpt>
      <trkpt lat="45.55897" lon="6.52342">
        <ele>1327.31</ele>
        <time>2016-07-08T12:41:58Z</time>
      </trkpt>
      <trkpt lat="45.55884" lon="6.52322">
        <ele>1314.5</ele>
        <time>2016-07-08T12:43:32Z</time>
      </trkpt>
      <trkpt lat="45.55869" lon="6.52308">
        <ele>1314.5</ele>
        <time>2016-07-08T12:43:50Z</time>
      </trkpt>
      <trkpt lat="45.55852" lon="6.52296">
        <ele>1313.56</ele>
        <time>2016-07-08T12:44:02Z</time>
      </trkpt>
      <trkpt lat="45.55835" lon="6.52286">
        <ele>1310.57</ele>
        <time>2016-07-08T12:44:12Z</time>
      </trkpt>
    </trkseg>
  </trk>
</gpx>